<?xml version="1.0" encoding="UTF-8" standalone="no" ?>
<gpx xmlns="http://www.topografix.com/GPX/1/1" xmlns:xsi="http://www.w3.org/2001/XMLSchema-instance" xsi:schemaLocation="http://www.topografix.com/GPX/1/1 http://www.topografix.com/GPX/1/1/gpx.xsd" version="1.1" creator="VisuGPX - https://www.visugpx.com">
  <metadata>
    <name>Moyens, boucle du 21/12/2013</name>
    <desc><![CDATA[Boucle des Moyens]]></desc>
  </metadata>
  <trk>
    <name><![CDATA[21-DEC-13 boucle des moyens]]></name>
    <trkseg>
      <trkpt lat="43.0074" lon="-0.09491">
        <ele>316.41</ele>
        <time>2013-12-21T09:18:23Z</time>
      </trkpt>
      <trkpt lat="43.00741" lon="-0.09491">
        <ele>319.78</ele>
        <time>2013-12-21T09:18:24Z</time>
      </trkpt>
      <trkpt lat="43.00741" lon="-0.09491">
        <ele>323.14</ele>
        <time>2013-12-21T09:18:25Z</time>
      </trkpt>
      <trkpt lat="43.0074" lon="-0.09491">
        <ele>329.39</ele>
        <time>2013-12-21T09:18:27Z</time>
      </trkpt>
      <trkpt lat="43.0074" lon="-0.09492">
        <ele>335.64</ele>
        <time>2013-12-21T09:18:29Z</time>
      </trkpt>
      <trkpt lat="43.0074" lon="-0.09492">
        <ele>340.44</ele>
        <time>2013-12-21T09:18:31Z</time>
      </trkpt>
      <trkpt lat="43.0074" lon="-0.09491">
        <ele>345.73</ele>
        <time>2013-12-21T09:18:33Z</time>
      </trkpt>
      <trkpt lat="43.0074" lon="-0.09491">
        <ele>350.54</ele>
        <time>2013-12-21T09:18:35Z</time>
      </trkpt>
      <trkpt lat="43.0074" lon="-0.09491">
        <ele>354.86</ele>
        <time>2013-12-21T09:18:37Z</time>
      </trkpt>
      <trkpt lat="43.0074" lon="-0.09491">
        <ele>358.71</ele>
        <time>2013-12-21T09:18:39Z</time>
      </trkpt>
      <trkpt lat="43.0074" lon="-0.09491">
        <ele>362.55</ele>
        <time>2013-12-21T09:18:41Z</time>
      </trkpt>
      <trkpt lat="43.0074" lon="-0.09491">
        <ele>365.92</ele>
        <time>2013-12-21T09:18:43Z</time>
      </trkpt>
      <trkpt lat="43.0074" lon="-0.09491">
        <ele>369.76</ele>
        <time>2013-12-21T09:18:45Z</time>
      </trkpt>
      <trkpt lat="43.0074" lon="-0.09491">
        <ele>371.21</ele>
        <time>2013-12-21T09:18:46Z</time>
      </trkpt>
      <trkpt lat="43.00745" lon="-0.09497">
        <ele>376.97</ele>
        <time>2013-12-21T09:18:50Z</time>
      </trkpt>
      <trkpt lat="43.0075" lon="-0.09498">
        <ele>380.82</ele>
        <time>2013-12-21T09:18:53Z</time>
      </trkpt>
      <trkpt lat="43.00755" lon="-0.09491">
        <ele>384.66</ele>
        <time>2013-12-21T09:18:56Z</time>
      </trkpt>
      <trkpt lat="43.00758" lon="-0.09486">
        <ele>387.07</ele>
        <time>2013-12-21T09:18:58Z</time>
      </trkpt>
      <trkpt lat="43.00753" lon="-0.09473">
        <ele>391.87</ele>
        <time>2013-12-21T09:19:03Z</time>
      </trkpt>
      <trkpt lat="43.00744" lon="-0.09462">
        <ele>395.24</ele>
        <time>2013-12-21T09:19:07Z</time>
      </trkpt>
      <trkpt lat="43.00734" lon="-0.0945">
        <ele>398.6</ele>
        <time>2013-12-21T09:19:11Z</time>
      </trkpt>
      <trkpt lat="43.00722" lon="-0.09433">
        <ele>401.49</ele>
        <time>2013-12-21T09:19:16Z</time>
      </trkpt>
      <trkpt lat="43.00714" lon="-0.09424">
        <ele>403.41</ele>
        <time>2013-12-21T09:19:19Z</time>
      </trkpt>
      <trkpt lat="43.00698" lon="-0.09404">
        <ele>406.77</ele>
        <time>2013-12-21T09:19:25Z</time>
      </trkpt>
      <trkpt lat="43.00687" lon="-0.09389">
        <ele>408.7</ele>
        <time>2013-12-21T09:19:29Z</time>
      </trkpt>
      <trkpt lat="43.00666" lon="-0.09366">
        <ele>411.58</ele>
        <time>2013-12-21T09:19:36Z</time>
      </trkpt>
      <trkpt lat="43.00649" lon="-0.09345">
        <ele>415.43</ele>
        <time>2013-12-21T09:19:43Z</time>
      </trkpt>
      <trkpt lat="43.00645" lon="-0.09342">
        <ele>415.91</ele>
        <time>2013-12-21T09:19:45Z</time>
      </trkpt>
      <trkpt lat="43.00642" lon="-0.09339">
        <ele>419.75</ele>
        <time>2013-12-21T09:19:57Z</time>
      </trkpt>
      <trkpt lat="43.00642" lon="-0.09341">
        <ele>422.16</ele>
        <time>2013-12-21T09:20:24Z</time>
      </trkpt>
      <trkpt lat="43.00641" lon="-0.09341">
        <ele>421.68</ele>
        <time>2013-12-21T09:20:30Z</time>
      </trkpt>
      <trkpt lat="43.00618" lon="-0.09312">
        <ele>421.19</ele>
        <time>2013-12-21T09:20:40Z</time>
      </trkpt>
      <trkpt lat="43.00592" lon="-0.0928">
        <ele>421.19</ele>
        <time>2013-12-21T09:20:51Z</time>
      </trkpt>
      <trkpt lat="43.00565" lon="-0.09246">
        <ele>421.19</ele>
        <time>2013-12-21T09:21:02Z</time>
      </trkpt>
      <trkpt lat="43.00529" lon="-0.09204">
        <ele>421.19</ele>
        <time>2013-12-21T09:21:16Z</time>
      </trkpt>
      <trkpt lat="43.00475" lon="-0.09142">
        <ele>421.68</ele>
        <time>2013-12-21T09:21:35Z</time>
      </trkpt>
      <trkpt lat="43.00428" lon="-0.09096">
        <ele>421.68</ele>
        <time>2013-12-21T09:21:49Z</time>
      </trkpt>
      <trkpt lat="43.00362" lon="-0.09047">
        <ele>422.16</ele>
        <time>2013-12-21T09:22:08Z</time>
      </trkpt>
      <trkpt lat="43.00333" lon="-0.09027">
        <ele>422.64</ele>
        <time>2013-12-21T09:22:16Z</time>
      </trkpt>
      <trkpt lat="43.00273" lon="-0.08985">
        <ele>423.12</ele>
        <time>2013-12-21T09:22:33Z</time>
      </trkpt>
      <trkpt lat="43.00237" lon="-0.08961">
        <ele>423.12</ele>
        <time>2013-12-21T09:22:44Z</time>
      </trkpt>
      <trkpt lat="43.00186" lon="-0.08925">
        <ele>424.08</ele>
        <time>2013-12-21T09:22:59Z</time>
      </trkpt>
      <trkpt lat="43.00143" lon="-0.08895">
        <ele>423.6</ele>
        <time>2013-12-21T09:23:11Z</time>
      </trkpt>
      <trkpt lat="43.00077" lon="-0.0885">
        <ele>424.56</ele>
        <time>2013-12-21T09:23:29Z</time>
      </trkpt>
      <trkpt lat="43.0001" lon="-0.08803">
        <ele>425.52</ele>
        <time>2013-12-21T09:23:48Z</time>
      </trkpt>
      <trkpt lat="42.99976" lon="-0.0878">
        <ele>425.04</ele>
        <time>2013-12-21T09:24:00Z</time>
      </trkpt>
      <trkpt lat="42.99974" lon="-0.08776">
        <ele>424.56</ele>
        <time>2013-12-21T09:24:03Z</time>
      </trkpt>
      <trkpt lat="42.9997" lon="-0.08766">
        <ele>421.68</ele>
        <time>2013-12-21T09:24:09Z</time>
      </trkpt>
      <trkpt lat="42.9996" lon="-0.08757">
        <ele>419.75</ele>
        <time>2013-12-21T09:24:12Z</time>
      </trkpt>
      <trkpt lat="42.99945" lon="-0.08747">
        <ele>420.23</ele>
        <time>2013-12-21T09:24:17Z</time>
      </trkpt>
      <trkpt lat="42.99928" lon="-0.08718">
        <ele>419.75</ele>
        <time>2013-12-21T09:24:26Z</time>
      </trkpt>
      <trkpt lat="42.99902" lon="-0.08699">
        <ele>419.75</ele>
        <time>2013-12-21T09:24:38Z</time>
      </trkpt>
      <trkpt lat="42.99866" lon="-0.08676">
        <ele>418.79</ele>
        <time>2013-12-21T09:24:51Z</time>
      </trkpt>
      <trkpt lat="42.9983" lon="-0.08654">
        <ele>418.31</ele>
        <time>2013-12-21T09:25:02Z</time>
      </trkpt>
      <trkpt lat="42.99822" lon="-0.08649">
        <ele>418.31</ele>
        <time>2013-12-21T09:25:04Z</time>
      </trkpt>
      <trkpt lat="42.99793" lon="-0.0863">
        <ele>416.87</ele>
        <time>2013-12-21T09:25:13Z</time>
      </trkpt>
      <trkpt lat="42.99791" lon="-0.08566">
        <ele>417.35</ele>
        <time>2013-12-21T09:25:27Z</time>
      </trkpt>
      <trkpt lat="42.99791" lon="-0.08537">
        <ele>416.87</ele>
        <time>2013-12-21T09:25:33Z</time>
      </trkpt>
      <trkpt lat="42.99792" lon="-0.08481">
        <ele>414.95</ele>
        <time>2013-12-21T09:25:42Z</time>
      </trkpt>
      <trkpt lat="42.99807" lon="-0.08425">
        <ele>413.98</ele>
        <time>2013-12-21T09:25:51Z</time>
      </trkpt>
      <trkpt lat="42.99813" lon="-0.08355">
        <ele>414.95</ele>
        <time>2013-12-21T09:26:05Z</time>
      </trkpt>
      <trkpt lat="42.99823" lon="-0.08278">
        <ele>414.47</ele>
        <time>2013-12-21T09:26:21Z</time>
      </trkpt>
      <trkpt lat="42.99834" lon="-0.08261">
        <ele>414.47</ele>
        <time>2013-12-21T09:26:25Z</time>
      </trkpt>
      <trkpt lat="42.99875" lon="-0.08243">
        <ele>414.47</ele>
        <time>2013-12-21T09:26:35Z</time>
      </trkpt>
      <trkpt lat="42.99892" lon="-0.08206">
        <ele>414.47</ele>
        <time>2013-12-21T09:26:43Z</time>
      </trkpt>
      <trkpt lat="42.99887" lon="-0.08169">
        <ele>413.98</ele>
        <time>2013-12-21T09:26:49Z</time>
      </trkpt>
      <trkpt lat="42.99887" lon="-0.08157">
        <ele>413.98</ele>
        <time>2013-12-21T09:26:51Z</time>
      </trkpt>
      <trkpt lat="42.99907" lon="-0.08107">
        <ele>414.47</ele>
        <time>2013-12-21T09:27:02Z</time>
      </trkpt>
      <trkpt lat="42.99911" lon="-0.08104">
        <ele>413.98</ele>
        <time>2013-12-21T09:27:04Z</time>
      </trkpt>
      <trkpt lat="42.99943" lon="-0.08098">
        <ele>413.5</ele>
        <time>2013-12-21T09:27:15Z</time>
      </trkpt>
      <trkpt lat="42.9998" lon="-0.08095">
        <ele>412.54</ele>
        <time>2013-12-21T09:27:26Z</time>
      </trkpt>
      <trkpt lat="42.99992" lon="-0.08094">
        <ele>412.54</ele>
        <time>2013-12-21T09:27:30Z</time>
      </trkpt>
      <trkpt lat="43.00038" lon="-0.08092">
        <ele>412.54</ele>
        <time>2013-12-21T09:27:43Z</time>
      </trkpt>
      <trkpt lat="43.00079" lon="-0.08099">
        <ele>412.54</ele>
        <time>2013-12-21T09:27:55Z</time>
      </trkpt>
      <trkpt lat="43.00108" lon="-0.08101">
        <ele>412.54</ele>
        <time>2013-12-21T09:28:03Z</time>
      </trkpt>
      <trkpt lat="43.0014" lon="-0.08104">
        <ele>413.02</ele>
        <time>2013-12-21T09:28:12Z</time>
      </trkpt>
      <trkpt lat="43.00171" lon="-0.08103">
        <ele>413.98</ele>
        <time>2013-12-21T09:28:22Z</time>
      </trkpt>
      <trkpt lat="43.00212" lon="-0.0811">
        <ele>415.43</ele>
        <time>2013-12-21T09:28:34Z</time>
      </trkpt>
      <trkpt lat="43.00258" lon="-0.08114">
        <ele>414.47</ele>
        <time>2013-12-21T09:28:47Z</time>
      </trkpt>
      <trkpt lat="43.0027" lon="-0.08116">
        <ele>413.98</ele>
        <time>2013-12-21T09:28:50Z</time>
      </trkpt>
      <trkpt lat="43.00278" lon="-0.08118">
        <ele>413.98</ele>
        <time>2013-12-21T09:28:52Z</time>
      </trkpt>
      <trkpt lat="43.00339" lon="-0.08127">
        <ele>412.54</ele>
        <time>2013-12-21T09:29:04Z</time>
      </trkpt>
      <trkpt lat="43.0041" lon="-0.08135">
        <ele>412.06</ele>
        <time>2013-12-21T09:29:19Z</time>
      </trkpt>
      <trkpt lat="43.00434" lon="-0.08135">
        <ele>412.06</ele>
        <time>2013-12-21T09:29:24Z</time>
      </trkpt>
      <trkpt lat="43.00492" lon="-0.08143">
        <ele>413.5</ele>
        <time>2013-12-21T09:29:37Z</time>
      </trkpt>
      <trkpt lat="43.00509" lon="-0.08153">
        <ele>415.43</ele>
        <time>2013-12-21T09:29:42Z</time>
      </trkpt>
      <trkpt lat="43.00516" lon="-0.08165">
        <ele>415.43</ele>
        <time>2013-12-21T09:29:45Z</time>
      </trkpt>
      <trkpt lat="43.00538" lon="-0.08189">
        <ele>415.43</ele>
        <time>2013-12-21T09:29:53Z</time>
      </trkpt>
      <trkpt lat="43.00541" lon="-0.08178">
        <ele>415.91</ele>
        <time>2013-12-21T09:29:59Z</time>
      </trkpt>
      <trkpt lat="43.00538" lon="-0.08123">
        <ele>415.91</ele>
        <time>2013-12-21T09:30:13Z</time>
      </trkpt>
      <trkpt lat="43.00523" lon="-0.08069">
        <ele>416.87</ele>
        <time>2013-12-21T09:30:26Z</time>
      </trkpt>
      <trkpt lat="43.00502" lon="-0.08036">
        <ele>416.39</ele>
        <time>2013-12-21T09:30:35Z</time>
      </trkpt>
      <trkpt lat="43.00473" lon="-0.07986">
        <ele>415.43</ele>
        <time>2013-12-21T09:30:48Z</time>
      </trkpt>
      <trkpt lat="43.00472" lon="-0.07984">
        <ele>415.43</ele>
        <time>2013-12-21T09:30:49Z</time>
      </trkpt>
      <trkpt lat="43.00459" lon="-0.07968">
        <ele>415.43</ele>
        <time>2013-12-21T09:31:02Z</time>
      </trkpt>
      <trkpt lat="43.00461" lon="-0.07967">
        <ele>414.95</ele>
        <time>2013-12-21T09:31:22Z</time>
      </trkpt>
      <trkpt lat="43.00461" lon="-0.07967">
        <ele>414.95</ele>
        <time>2013-12-21T09:31:37Z</time>
      </trkpt>
      <trkpt lat="43.00462" lon="-0.07942">
        <ele>417.35</ele>
        <time>2013-12-21T09:31:45Z</time>
      </trkpt>
      <trkpt lat="43.00452" lon="-0.07923">
        <ele>419.75</ele>
        <time>2013-12-21T09:31:53Z</time>
      </trkpt>
      <trkpt lat="43.00451" lon="-0.0792">
        <ele>421.19</ele>
        <time>2013-12-21T09:31:55Z</time>
      </trkpt>
      <trkpt lat="43.0045" lon="-0.07914">
        <ele>423.12</ele>
        <time>2013-12-21T09:32:05Z</time>
      </trkpt>
      <trkpt lat="43.00449" lon="-0.07909">
        <ele>424.56</ele>
        <time>2013-12-21T09:32:13Z</time>
      </trkpt>
      <trkpt lat="43.00448" lon="-0.07905">
        <ele>424.56</ele>
        <time>2013-12-21T09:32:24Z</time>
      </trkpt>
      <trkpt lat="43.00443" lon="-0.07905">
        <ele>424.08</ele>
        <time>2013-12-21T09:32:42Z</time>
      </trkpt>
      <trkpt lat="43.00443" lon="-0.07904">
        <ele>424.56</ele>
        <time>2013-12-21T09:32:47Z</time>
      </trkpt>
      <trkpt lat="43.00427" lon="-0.07893">
        <ele>425.52</ele>
        <time>2013-12-21T09:32:59Z</time>
      </trkpt>
      <trkpt lat="43.00423" lon="-0.07891">
        <ele>426</ele>
        <time>2013-12-21T09:33:01Z</time>
      </trkpt>
      <trkpt lat="43.00409" lon="-0.07871">
        <ele>427.44</ele>
        <time>2013-12-21T09:33:11Z</time>
      </trkpt>
      <trkpt lat="43.004" lon="-0.07851">
        <ele>427.92</ele>
        <time>2013-12-21T09:33:18Z</time>
      </trkpt>
      <trkpt lat="43.00387" lon="-0.07819">
        <ele>430.33</ele>
        <time>2013-12-21T09:33:31Z</time>
      </trkpt>
      <trkpt lat="43.0038" lon="-0.07786">
        <ele>431.77</ele>
        <time>2013-12-21T09:33:43Z</time>
      </trkpt>
      <trkpt lat="43.00377" lon="-0.07766">
        <ele>431.77</ele>
        <time>2013-12-21T09:33:49Z</time>
      </trkpt>
      <trkpt lat="43.00361" lon="-0.07724">
        <ele>432.73</ele>
        <time>2013-12-21T09:34:03Z</time>
      </trkpt>
      <trkpt lat="43.0035" lon="-0.07695">
        <ele>433.69</ele>
        <time>2013-12-21T09:34:13Z</time>
      </trkpt>
      <trkpt lat="43.00348" lon="-0.07691">
        <ele>433.69</ele>
        <time>2013-12-21T09:34:15Z</time>
      </trkpt>
      <trkpt lat="43.00341" lon="-0.07662">
        <ele>434.65</ele>
        <time>2013-12-21T09:34:25Z</time>
      </trkpt>
      <trkpt lat="43.00338" lon="-0.07651">
        <ele>434.65</ele>
        <time>2013-12-21T09:34:30Z</time>
      </trkpt>
      <trkpt lat="43.00331" lon="-0.07637">
        <ele>434.65</ele>
        <time>2013-12-21T09:34:35Z</time>
      </trkpt>
      <trkpt lat="43.00322" lon="-0.07606">
        <ele>435.61</ele>
        <time>2013-12-21T09:34:44Z</time>
      </trkpt>
      <trkpt lat="43.00318" lon="-0.0758">
        <ele>435.61</ele>
        <time>2013-12-21T09:34:52Z</time>
      </trkpt>
      <trkpt lat="43.00319" lon="-0.0755">
        <ele>436.58</ele>
        <time>2013-12-21T09:35:00Z</time>
      </trkpt>
      <trkpt lat="43.00323" lon="-0.07509">
        <ele>438.5</ele>
        <time>2013-12-21T09:35:12Z</time>
      </trkpt>
      <trkpt lat="43.00325" lon="-0.07497">
        <ele>438.98</ele>
        <time>2013-12-21T09:35:15Z</time>
      </trkpt>
      <trkpt lat="43.00324" lon="-0.0747">
        <ele>438.98</ele>
        <time>2013-12-21T09:35:21Z</time>
      </trkpt>
      <trkpt lat="43.0034" lon="-0.07426">
        <ele>437.06</ele>
        <time>2013-12-21T09:35:29Z</time>
      </trkpt>
      <trkpt lat="43.00337" lon="-0.07397">
        <ele>435.61</ele>
        <time>2013-12-21T09:35:33Z</time>
      </trkpt>
      <trkpt lat="43.00336" lon="-0.0738">
        <ele>434.65</ele>
        <time>2013-12-21T09:35:35Z</time>
      </trkpt>
      <trkpt lat="43.00352" lon="-0.07347">
        <ele>438.5</ele>
        <time>2013-12-21T09:35:41Z</time>
      </trkpt>
      <trkpt lat="43.00389" lon="-0.07313">
        <ele>439.46</ele>
        <time>2013-12-21T09:35:56Z</time>
      </trkpt>
      <trkpt lat="43.00421" lon="-0.07293">
        <ele>441.38</ele>
        <time>2013-12-21T09:36:08Z</time>
      </trkpt>
      <trkpt lat="43.00456" lon="-0.07277">
        <ele>444.27</ele>
        <time>2013-12-21T09:36:21Z</time>
      </trkpt>
      <trkpt lat="43.00472" lon="-0.07266">
        <ele>446.67</ele>
        <time>2013-12-21T09:36:28Z</time>
      </trkpt>
      <trkpt lat="43.00484" lon="-0.07256">
        <ele>448.59</ele>
        <time>2013-12-21T09:36:39Z</time>
      </trkpt>
      <trkpt lat="43.00484" lon="-0.07256">
        <ele>448.11</ele>
        <time>2013-12-21T09:36:54Z</time>
      </trkpt>
      <trkpt lat="43.00488" lon="-0.0725">
        <ele>448.59</ele>
        <time>2013-12-21T09:37:04Z</time>
      </trkpt>
      <trkpt lat="43.00488" lon="-0.0725">
        <ele>448.59</ele>
        <time>2013-12-21T09:37:40Z</time>
      </trkpt>
      <trkpt lat="43.00487" lon="-0.07252">
        <ele>448.11</ele>
        <time>2013-12-21T09:38:23Z</time>
      </trkpt>
      <trkpt lat="43.00486" lon="-0.07252">
        <ele>448.59</ele>
        <time>2013-12-21T09:38:59Z</time>
      </trkpt>
      <trkpt lat="43.00487" lon="-0.07254">
        <ele>448.11</ele>
        <time>2013-12-21T09:39:44Z</time>
      </trkpt>
      <trkpt lat="43.00488" lon="-0.07251">
        <ele>450.03</ele>
        <time>2013-12-21T09:40:11Z</time>
      </trkpt>
      <trkpt lat="43.00489" lon="-0.07249">
        <ele>449.55</ele>
        <time>2013-12-21T09:40:32Z</time>
      </trkpt>
      <trkpt lat="43.00488" lon="-0.07248">
        <ele>449.55</ele>
        <time>2013-12-21T09:40:58Z</time>
      </trkpt>
      <trkpt lat="43.0049" lon="-0.07248">
        <ele>449.55</ele>
        <time>2013-12-21T09:41:22Z</time>
      </trkpt>
      <trkpt lat="43.0049" lon="-0.07248">
        <ele>449.55</ele>
        <time>2013-12-21T09:41:46Z</time>
      </trkpt>
      <trkpt lat="43.0049" lon="-0.07248">
        <ele>449.55</ele>
        <time>2013-12-21T09:41:50Z</time>
      </trkpt>
      <trkpt lat="43.00491" lon="-0.07247">
        <ele>449.55</ele>
        <time>2013-12-21T09:41:52Z</time>
      </trkpt>
      <trkpt lat="43.00499" lon="-0.07243">
        <ele>450.03</ele>
        <time>2013-12-21T09:41:56Z</time>
      </trkpt>
      <trkpt lat="43.00523" lon="-0.07221">
        <ele>452.92</ele>
        <time>2013-12-21T09:42:10Z</time>
      </trkpt>
      <trkpt lat="43.00541" lon="-0.07211">
        <ele>453.88</ele>
        <time>2013-12-21T09:42:20Z</time>
      </trkpt>
      <trkpt lat="43.00562" lon="-0.07242">
        <ele>453.88</ele>
        <time>2013-12-21T09:42:32Z</time>
      </trkpt>
      <trkpt lat="43.0058" lon="-0.07284">
        <ele>455.32</ele>
        <time>2013-12-21T09:42:45Z</time>
      </trkpt>
      <trkpt lat="43.00587" lon="-0.07306">
        <ele>457.72</ele>
        <time>2013-12-21T09:42:52Z</time>
      </trkpt>
      <trkpt lat="43.00601" lon="-0.07322">
        <ele>461.09</ele>
        <time>2013-12-21T09:43:00Z</time>
      </trkpt>
      <trkpt lat="43.00615" lon="-0.07343">
        <ele>461.09</ele>
        <time>2013-12-21T09:43:08Z</time>
      </trkpt>
      <trkpt lat="43.00623" lon="-0.07358">
        <ele>461.57</ele>
        <time>2013-12-21T09:43:13Z</time>
      </trkpt>
      <trkpt lat="43.00638" lon="-0.07411">
        <ele>463.97</ele>
        <time>2013-12-21T09:43:30Z</time>
      </trkpt>
      <trkpt lat="43.00647" lon="-0.07452">
        <ele>465.42</ele>
        <time>2013-12-21T09:43:42Z</time>
      </trkpt>
      <trkpt lat="43.00658" lon="-0.07496">
        <ele>466.38</ele>
        <time>2013-12-21T09:43:55Z</time>
      </trkpt>
      <trkpt lat="43.00682" lon="-0.07539">
        <ele>469.26</ele>
        <time>2013-12-21T09:44:10Z</time>
      </trkpt>
      <trkpt lat="43.00694" lon="-0.07581">
        <ele>471.18</ele>
        <time>2013-12-21T09:44:23Z</time>
      </trkpt>
      <trkpt lat="43.00708" lon="-0.07609">
        <ele>473.11</ele>
        <time>2013-12-21T09:44:33Z</time>
      </trkpt>
      <trkpt lat="43.0071" lon="-0.07646">
        <ele>475.51</ele>
        <time>2013-12-21T09:44:44Z</time>
      </trkpt>
      <trkpt lat="43.00719" lon="-0.07686">
        <ele>475.99</ele>
        <time>2013-12-21T09:44:55Z</time>
      </trkpt>
      <trkpt lat="43.00731" lon="-0.0772">
        <ele>475.99</ele>
        <time>2013-12-21T09:45:06Z</time>
      </trkpt>
      <trkpt lat="43.00739" lon="-0.07729">
        <ele>476.95</ele>
        <time>2013-12-21T09:45:10Z</time>
      </trkpt>
      <trkpt lat="43.00749" lon="-0.0774">
        <ele>476.47</ele>
        <time>2013-12-21T09:45:15Z</time>
      </trkpt>
      <trkpt lat="43.00763" lon="-0.07754">
        <ele>475.03</ele>
        <time>2013-12-21T09:45:19Z</time>
      </trkpt>
      <trkpt lat="43.00772" lon="-0.07762">
        <ele>474.07</ele>
        <time>2013-12-21T09:45:21Z</time>
      </trkpt>
      <trkpt lat="43.00782" lon="-0.07776">
        <ele>472.63</ele>
        <time>2013-12-21T09:45:24Z</time>
      </trkpt>
      <trkpt lat="43.00786" lon="-0.07781">
        <ele>472.14</ele>
        <time>2013-12-21T09:45:25Z</time>
      </trkpt>
      <trkpt lat="43.00798" lon="-0.07792">
        <ele>471.18</ele>
        <time>2013-12-21T09:45:28Z</time>
      </trkpt>
      <trkpt lat="43.00807" lon="-0.07807">
        <ele>469.74</ele>
        <time>2013-12-21T09:45:31Z</time>
      </trkpt>
      <trkpt lat="43.00814" lon="-0.07823">
        <ele>467.82</ele>
        <time>2013-12-21T09:45:34Z</time>
      </trkpt>
      <trkpt lat="43.00817" lon="-0.07833">
        <ele>467.82</ele>
        <time>2013-12-21T09:45:36Z</time>
      </trkpt>
      <trkpt lat="43.00829" lon="-0.07826">
        <ele>467.34</ele>
        <time>2013-12-21T09:45:45Z</time>
      </trkpt>
      <trkpt lat="43.00843" lon="-0.07817">
        <ele>467.34</ele>
        <time>2013-12-21T09:45:53Z</time>
      </trkpt>
      <trkpt lat="43.00847" lon="-0.0781">
        <ele>467.82</ele>
        <time>2013-12-21T09:45:55Z</time>
      </trkpt>
      <trkpt lat="43.00891" lon="-0.07779">
        <ele>468.3</ele>
        <time>2013-12-21T09:46:12Z</time>
      </trkpt>
      <trkpt lat="43.00929" lon="-0.07774">
        <ele>468.3</ele>
        <time>2013-12-21T09:46:23Z</time>
      </trkpt>
      <trkpt lat="43.00969" lon="-0.07782">
        <ele>470.7</ele>
        <time>2013-12-21T09:46:35Z</time>
      </trkpt>
      <trkpt lat="43.01013" lon="-0.0777">
        <ele>472.63</ele>
        <time>2013-12-21T09:46:49Z</time>
      </trkpt>
      <trkpt lat="43.01044" lon="-0.07765">
        <ele>475.51</ele>
        <time>2013-12-21T09:47:00Z</time>
      </trkpt>
      <trkpt lat="43.01082" lon="-0.07766">
        <ele>478.39</ele>
        <time>2013-12-21T09:47:12Z</time>
      </trkpt>
      <trkpt lat="43.01127" lon="-0.07748">
        <ele>476.47</ele>
        <time>2013-12-21T09:47:24Z</time>
      </trkpt>
      <trkpt lat="43.01148" lon="-0.07745">
        <ele>476.47</ele>
        <time>2013-12-21T09:47:28Z</time>
      </trkpt>
      <trkpt lat="43.01209" lon="-0.07767">
        <ele>476.47</ele>
        <time>2013-12-21T09:47:42Z</time>
      </trkpt>
      <trkpt lat="43.01222" lon="-0.07772">
        <ele>475.99</ele>
        <time>2013-12-21T09:47:45Z</time>
      </trkpt>
      <trkpt lat="43.01245" lon="-0.07806">
        <ele>475.99</ele>
        <time>2013-12-21T09:47:54Z</time>
      </trkpt>
      <trkpt lat="43.01274" lon="-0.07828">
        <ele>478.39</ele>
        <time>2013-12-21T09:48:05Z</time>
      </trkpt>
      <trkpt lat="43.01304" lon="-0.07842">
        <ele>480.32</ele>
        <time>2013-12-21T09:48:17Z</time>
      </trkpt>
      <trkpt lat="43.01339" lon="-0.07863">
        <ele>483.2</ele>
        <time>2013-12-21T09:48:31Z</time>
      </trkpt>
      <trkpt lat="43.01369" lon="-0.0787">
        <ele>484.64</ele>
        <time>2013-12-21T09:48:42Z</time>
      </trkpt>
      <trkpt lat="43.01399" lon="-0.07843">
        <ele>484.64</ele>
        <time>2013-12-21T09:48:54Z</time>
      </trkpt>
      <trkpt lat="43.01439" lon="-0.07798">
        <ele>482.72</ele>
        <time>2013-12-21T09:49:07Z</time>
      </trkpt>
      <trkpt lat="43.01458" lon="-0.07774">
        <ele>485.6</ele>
        <time>2013-12-21T09:49:17Z</time>
      </trkpt>
      <trkpt lat="43.01466" lon="-0.07735">
        <ele>488.97</ele>
        <time>2013-12-21T09:49:30Z</time>
      </trkpt>
      <trkpt lat="43.01478" lon="-0.0771">
        <ele>492.33</ele>
        <time>2013-12-21T09:49:41Z</time>
      </trkpt>
      <trkpt lat="43.01494" lon="-0.07682">
        <ele>495.22</ele>
        <time>2013-12-21T09:49:54Z</time>
      </trkpt>
      <trkpt lat="43.01508" lon="-0.07689">
        <ele>498.1</ele>
        <time>2013-12-21T09:50:03Z</time>
      </trkpt>
      <trkpt lat="43.01526" lon="-0.077">
        <ele>500.98</ele>
        <time>2013-12-21T09:50:16Z</time>
      </trkpt>
      <trkpt lat="43.01537" lon="-0.07702">
        <ele>503.39</ele>
        <time>2013-12-21T09:50:23Z</time>
      </trkpt>
      <trkpt lat="43.01558" lon="-0.07709">
        <ele>506.75</ele>
        <time>2013-12-21T09:50:37Z</time>
      </trkpt>
      <trkpt lat="43.01578" lon="-0.0771">
        <ele>510.12</ele>
        <time>2013-12-21T09:50:51Z</time>
      </trkpt>
      <trkpt lat="43.01587" lon="-0.07696">
        <ele>512.52</ele>
        <time>2013-12-21T09:51:01Z</time>
      </trkpt>
      <trkpt lat="43.0159" lon="-0.07687">
        <ele>512.52</ele>
        <time>2013-12-21T09:51:06Z</time>
      </trkpt>
      <trkpt lat="43.01607" lon="-0.07659">
        <ele>515.88</ele>
        <time>2013-12-21T09:51:21Z</time>
      </trkpt>
      <trkpt lat="43.01609" lon="-0.07655">
        <ele>516.37</ele>
        <time>2013-12-21T09:51:23Z</time>
      </trkpt>
      <trkpt lat="43.01632" lon="-0.07645">
        <ele>518.77</ele>
        <time>2013-12-21T09:51:38Z</time>
      </trkpt>
      <trkpt lat="43.01636" lon="-0.07644">
        <ele>518.77</ele>
        <time>2013-12-21T09:51:41Z</time>
      </trkpt>
      <trkpt lat="43.01654" lon="-0.07651">
        <ele>522.13</ele>
        <time>2013-12-21T09:51:53Z</time>
      </trkpt>
      <trkpt lat="43.01657" lon="-0.0765">
        <ele>523.09</ele>
        <time>2013-12-21T09:51:55Z</time>
      </trkpt>
      <trkpt lat="43.01665" lon="-0.07639">
        <ele>525.5</ele>
        <time>2013-12-21T09:52:03Z</time>
      </trkpt>
      <trkpt lat="43.0167" lon="-0.07643">
        <ele>526.46</ele>
        <time>2013-12-21T09:52:07Z</time>
      </trkpt>
      <trkpt lat="43.0167" lon="-0.07646">
        <ele>526.94</ele>
        <time>2013-12-21T09:52:09Z</time>
      </trkpt>
      <trkpt lat="43.01667" lon="-0.07654">
        <ele>528.38</ele>
        <time>2013-12-21T09:52:15Z</time>
      </trkpt>
      <trkpt lat="43.01663" lon="-0.07666">
        <ele>529.82</ele>
        <time>2013-12-21T09:52:23Z</time>
      </trkpt>
      <trkpt lat="43.01661" lon="-0.0767">
        <ele>530.3</ele>
        <time>2013-12-21T09:52:26Z</time>
      </trkpt>
      <trkpt lat="43.0165" lon="-0.07685">
        <ele>533.19</ele>
        <time>2013-12-21T09:52:36Z</time>
      </trkpt>
      <trkpt lat="43.01648" lon="-0.07688">
        <ele>534.15</ele>
        <time>2013-12-21T09:52:38Z</time>
      </trkpt>
      <trkpt lat="43.01652" lon="-0.07692">
        <ele>535.59</ele>
        <time>2013-12-21T09:52:43Z</time>
      </trkpt>
      <trkpt lat="43.01654" lon="-0.07696">
        <ele>537.03</ele>
        <time>2013-12-21T09:52:46Z</time>
      </trkpt>
      <trkpt lat="43.01657" lon="-0.077">
        <ele>537.51</ele>
        <time>2013-12-21T09:52:49Z</time>
      </trkpt>
      <trkpt lat="43.01658" lon="-0.07708">
        <ele>538.96</ele>
        <time>2013-12-21T09:53:01Z</time>
      </trkpt>
      <trkpt lat="43.01658" lon="-0.0771">
        <ele>538.48</ele>
        <time>2013-12-21T09:53:03Z</time>
      </trkpt>
      <trkpt lat="43.01659" lon="-0.07725">
        <ele>540.4</ele>
        <time>2013-12-21T09:53:12Z</time>
      </trkpt>
      <trkpt lat="43.01655" lon="-0.0775">
        <ele>542.8</ele>
        <time>2013-12-21T09:53:25Z</time>
      </trkpt>
      <trkpt lat="43.01654" lon="-0.07753">
        <ele>543.76</ele>
        <time>2013-12-21T09:53:27Z</time>
      </trkpt>
      <trkpt lat="43.01648" lon="-0.07764">
        <ele>545.69</ele>
        <time>2013-12-21T09:53:37Z</time>
      </trkpt>
      <trkpt lat="43.01646" lon="-0.07765">
        <ele>545.2</ele>
        <time>2013-12-21T09:54:11Z</time>
      </trkpt>
      <trkpt lat="43.01646" lon="-0.07765">
        <ele>545.69</ele>
        <time>2013-12-21T09:54:45Z</time>
      </trkpt>
      <trkpt lat="43.0164" lon="-0.07777">
        <ele>546.65</ele>
        <time>2013-12-21T09:54:55Z</time>
      </trkpt>
      <trkpt lat="43.01619" lon="-0.07797">
        <ele>549.53</ele>
        <time>2013-12-21T09:55:09Z</time>
      </trkpt>
      <trkpt lat="43.01606" lon="-0.07811">
        <ele>552.41</ele>
        <time>2013-12-21T09:55:21Z</time>
      </trkpt>
      <trkpt lat="43.01604" lon="-0.07818">
        <ele>552.9</ele>
        <time>2013-12-21T09:55:27Z</time>
      </trkpt>
      <trkpt lat="43.01603" lon="-0.07838">
        <ele>553.86</ele>
        <time>2013-12-21T09:55:37Z</time>
      </trkpt>
      <trkpt lat="43.01603" lon="-0.07846">
        <ele>553.86</ele>
        <time>2013-12-21T09:55:53Z</time>
      </trkpt>
      <trkpt lat="43.01603" lon="-0.07846">
        <ele>554.34</ele>
        <time>2013-12-21T09:56:22Z</time>
      </trkpt>
      <trkpt lat="43.01604" lon="-0.07846">
        <ele>554.82</ele>
        <time>2013-12-21T09:56:46Z</time>
      </trkpt>
      <trkpt lat="43.01603" lon="-0.07845">
        <ele>555.3</ele>
        <time>2013-12-21T09:57:09Z</time>
      </trkpt>
      <trkpt lat="43.01603" lon="-0.07845">
        <ele>554.34</ele>
        <time>2013-12-21T09:57:13Z</time>
      </trkpt>
      <trkpt lat="43.01607" lon="-0.0787">
        <ele>555.3</ele>
        <time>2013-12-21T09:57:22Z</time>
      </trkpt>
      <trkpt lat="43.01606" lon="-0.07905">
        <ele>556.74</ele>
        <time>2013-12-21T09:57:35Z</time>
      </trkpt>
      <trkpt lat="43.01605" lon="-0.07913">
        <ele>557.7</ele>
        <time>2013-12-21T09:57:38Z</time>
      </trkpt>
      <trkpt lat="43.01613" lon="-0.07934">
        <ele>561.07</ele>
        <time>2013-12-21T09:57:48Z</time>
      </trkpt>
      <trkpt lat="43.01617" lon="-0.07947">
        <ele>562.99</ele>
        <time>2013-12-21T09:57:54Z</time>
      </trkpt>
      <trkpt lat="43.01625" lon="-0.07961">
        <ele>565.39</ele>
        <time>2013-12-21T09:58:02Z</time>
      </trkpt>
      <trkpt lat="43.01633" lon="-0.07988">
        <ele>566.83</ele>
        <time>2013-12-21T09:58:13Z</time>
      </trkpt>
      <trkpt lat="43.01642" lon="-0.08007">
        <ele>568.28</ele>
        <time>2013-12-21T09:58:20Z</time>
      </trkpt>
      <trkpt lat="43.01663" lon="-0.08047">
        <ele>568.28</ele>
        <time>2013-12-21T09:58:35Z</time>
      </trkpt>
      <trkpt lat="43.01684" lon="-0.08076">
        <ele>571.64</ele>
        <time>2013-12-21T09:58:47Z</time>
      </trkpt>
      <trkpt lat="43.01705" lon="-0.081">
        <ele>573.08</ele>
        <time>2013-12-21T09:58:59Z</time>
      </trkpt>
      <trkpt lat="43.01715" lon="-0.08095">
        <ele>574.53</ele>
        <time>2013-12-21T09:59:04Z</time>
      </trkpt>
      <trkpt lat="43.0173" lon="-0.08048">
        <ele>574.53</ele>
        <time>2013-12-21T09:59:19Z</time>
      </trkpt>
      <trkpt lat="43.01751" lon="-0.08021">
        <ele>576.93</ele>
        <time>2013-12-21T09:59:32Z</time>
      </trkpt>
      <trkpt lat="43.01764" lon="-0.0799">
        <ele>577.89</ele>
        <time>2013-12-21T09:59:43Z</time>
      </trkpt>
      <trkpt lat="43.01755" lon="-0.07992">
        <ele>580.77</ele>
        <time>2013-12-21T09:59:51Z</time>
      </trkpt>
      <trkpt lat="43.01733" lon="-0.08011">
        <ele>581.73</ele>
        <time>2013-12-21T10:00:04Z</time>
      </trkpt>
      <trkpt lat="43.01728" lon="-0.08012">
        <ele>582.22</ele>
        <time>2013-12-21T10:00:06Z</time>
      </trkpt>
      <trkpt lat="43.01727" lon="-0.08008">
        <ele>583.66</ele>
        <time>2013-12-21T10:00:10Z</time>
      </trkpt>
      <trkpt lat="43.01737" lon="-0.0799">
        <ele>586.54</ele>
        <time>2013-12-21T10:00:20Z</time>
      </trkpt>
      <trkpt lat="43.01748" lon="-0.07948">
        <ele>586.54</ele>
        <time>2013-12-21T10:00:35Z</time>
      </trkpt>
      <trkpt lat="43.01757" lon="-0.07914">
        <ele>587.02</ele>
        <time>2013-12-21T10:00:47Z</time>
      </trkpt>
      <trkpt lat="43.01764" lon="-0.07904">
        <ele>588.46</ele>
        <time>2013-12-21T10:00:52Z</time>
      </trkpt>
      <trkpt lat="43.01766" lon="-0.07891">
        <ele>589.43</ele>
        <time>2013-12-21T10:01:02Z</time>
      </trkpt>
      <trkpt lat="43.01766" lon="-0.07891">
        <ele>588.46</ele>
        <time>2013-12-21T10:01:15Z</time>
      </trkpt>
      <trkpt lat="43.01766" lon="-0.07893">
        <ele>588.46</ele>
        <time>2013-12-21T10:01:47Z</time>
      </trkpt>
      <trkpt lat="43.01767" lon="-0.07894">
        <ele>588.46</ele>
        <time>2013-12-21T10:02:21Z</time>
      </trkpt>
      <trkpt lat="43.01767" lon="-0.07894">
        <ele>588.46</ele>
        <time>2013-12-21T10:02:53Z</time>
      </trkpt>
      <trkpt lat="43.01767" lon="-0.07893">
        <ele>587.98</ele>
        <time>2013-12-21T10:03:31Z</time>
      </trkpt>
      <trkpt lat="43.01767" lon="-0.07893">
        <ele>587.98</ele>
        <time>2013-12-21T10:04:09Z</time>
      </trkpt>
      <trkpt lat="43.01767" lon="-0.07894">
        <ele>588.46</ele>
        <time>2013-12-21T10:04:42Z</time>
      </trkpt>
      <trkpt lat="43.01766" lon="-0.07894">
        <ele>588.95</ele>
        <time>2013-12-21T10:05:21Z</time>
      </trkpt>
      <trkpt lat="43.01766" lon="-0.07894">
        <ele>587.98</ele>
        <time>2013-12-21T10:05:55Z</time>
      </trkpt>
      <trkpt lat="43.01766" lon="-0.07894">
        <ele>589.43</ele>
        <time>2013-12-21T10:06:14Z</time>
      </trkpt>
      <trkpt lat="43.01767" lon="-0.07894">
        <ele>589.43</ele>
        <time>2013-12-21T10:06:43Z</time>
      </trkpt>
      <trkpt lat="43.01768" lon="-0.07893">
        <ele>589.43</ele>
        <time>2013-12-21T10:07:01Z</time>
      </trkpt>
      <trkpt lat="43.01767" lon="-0.07893">
        <ele>588.95</ele>
        <time>2013-12-21T10:07:19Z</time>
      </trkpt>
      <trkpt lat="43.01767" lon="-0.07893">
        <ele>589.43</ele>
        <time>2013-12-21T10:07:41Z</time>
      </trkpt>
      <trkpt lat="43.01772" lon="-0.07886">
        <ele>587.02</ele>
        <time>2013-12-21T10:07:46Z</time>
      </trkpt>
      <trkpt lat="43.01787" lon="-0.07876">
        <ele>582.22</ele>
        <time>2013-12-21T10:07:51Z</time>
      </trkpt>
      <trkpt lat="43.01793" lon="-0.07871">
        <ele>579.33</ele>
        <time>2013-12-21T10:07:54Z</time>
      </trkpt>
      <trkpt lat="43.01794" lon="-0.07868">
        <ele>578.37</ele>
        <time>2013-12-21T10:08:05Z</time>
      </trkpt>
      <trkpt lat="43.01793" lon="-0.07868">
        <ele>578.37</ele>
        <time>2013-12-21T10:08:06Z</time>
      </trkpt>
      <trkpt lat="43.01795" lon="-0.07864">
        <ele>577.41</ele>
        <time>2013-12-21T10:08:08Z</time>
      </trkpt>
      <trkpt lat="43.01801" lon="-0.0785">
        <ele>575.49</ele>
        <time>2013-12-21T10:08:11Z</time>
      </trkpt>
      <trkpt lat="43.01804" lon="-0.07844">
        <ele>574.53</ele>
        <time>2013-12-21T10:08:12Z</time>
      </trkpt>
      <trkpt lat="43.01811" lon="-0.07829">
        <ele>574.53</ele>
        <time>2013-12-21T10:08:15Z</time>
      </trkpt>
      <trkpt lat="43.01813" lon="-0.07818">
        <ele>573.56</ele>
        <time>2013-12-21T10:08:17Z</time>
      </trkpt>
      <trkpt lat="43.01815" lon="-0.07805">
        <ele>573.56</ele>
        <time>2013-12-21T10:08:19Z</time>
      </trkpt>
      <trkpt lat="43.01826" lon="-0.078">
        <ele>572.6</ele>
        <time>2013-12-21T10:08:26Z</time>
      </trkpt>
      <trkpt lat="43.01824" lon="-0.07799">
        <ele>572.12</ele>
        <time>2013-12-21T10:08:54Z</time>
      </trkpt>
      <trkpt lat="43.01824" lon="-0.07798">
        <ele>572.12</ele>
        <time>2013-12-21T10:09:24Z</time>
      </trkpt>
      <trkpt lat="43.01825" lon="-0.07797">
        <ele>572.12</ele>
        <time>2013-12-21T10:09:50Z</time>
      </trkpt>
      <trkpt lat="43.01826" lon="-0.07797">
        <ele>573.08</ele>
        <time>2013-12-21T10:10:17Z</time>
      </trkpt>
      <trkpt lat="43.01826" lon="-0.07797">
        <ele>573.56</ele>
        <time>2013-12-21T10:10:29Z</time>
      </trkpt>
      <trkpt lat="43.01829" lon="-0.07804">
        <ele>573.56</ele>
        <time>2013-12-21T10:10:33Z</time>
      </trkpt>
      <trkpt lat="43.01838" lon="-0.07822">
        <ele>570.68</ele>
        <time>2013-12-21T10:10:37Z</time>
      </trkpt>
      <trkpt lat="43.01843" lon="-0.07835">
        <ele>569.24</ele>
        <time>2013-12-21T10:10:39Z</time>
      </trkpt>
      <trkpt lat="43.01834" lon="-0.07863">
        <ele>568.28</ele>
        <time>2013-12-21T10:10:45Z</time>
      </trkpt>
      <trkpt lat="43.0183" lon="-0.07876">
        <ele>568.28</ele>
        <time>2013-12-21T10:10:48Z</time>
      </trkpt>
      <trkpt lat="43.01826" lon="-0.07909">
        <ele>566.83</ele>
        <time>2013-12-21T10:10:55Z</time>
      </trkpt>
      <trkpt lat="43.01826" lon="-0.0792">
        <ele>565.87</ele>
        <time>2013-12-21T10:10:57Z</time>
      </trkpt>
      <trkpt lat="43.01826" lon="-0.07931">
        <ele>564.43</ele>
        <time>2013-12-21T10:10:59Z</time>
      </trkpt>
      <trkpt lat="43.01834" lon="-0.07953">
        <ele>560.59</ele>
        <time>2013-12-21T10:11:03Z</time>
      </trkpt>
      <trkpt lat="43.01839" lon="-0.07972">
        <ele>557.22</ele>
        <time>2013-12-21T10:11:07Z</time>
      </trkpt>
      <trkpt lat="43.01838" lon="-0.07973">
        <ele>557.7</ele>
        <time>2013-12-21T10:11:08Z</time>
      </trkpt>
      <trkpt lat="43.01835" lon="-0.07974">
        <ele>556.74</ele>
        <time>2013-12-21T10:11:09Z</time>
      </trkpt>
      <trkpt lat="43.01823" lon="-0.07975">
        <ele>554.34</ele>
        <time>2013-12-21T10:11:12Z</time>
      </trkpt>
      <trkpt lat="43.01815" lon="-0.07995">
        <ele>550.97</ele>
        <time>2013-12-21T10:11:17Z</time>
      </trkpt>
      <trkpt lat="43.01822" lon="-0.08004">
        <ele>548.57</ele>
        <time>2013-12-21T10:11:19Z</time>
      </trkpt>
      <trkpt lat="43.01832" lon="-0.08021">
        <ele>546.65</ele>
        <time>2013-12-21T10:11:22Z</time>
      </trkpt>
      <trkpt lat="43.01847" lon="-0.08045">
        <ele>542.8</ele>
        <time>2013-12-21T10:11:29Z</time>
      </trkpt>
      <trkpt lat="43.01849" lon="-0.08047">
        <ele>542.32</ele>
        <time>2013-12-21T10:11:30Z</time>
      </trkpt>
      <trkpt lat="43.01855" lon="-0.08048">
        <ele>540.88</ele>
        <time>2013-12-21T10:11:33Z</time>
      </trkpt>
      <trkpt lat="43.01862" lon="-0.0805">
        <ele>537.99</ele>
        <time>2013-12-21T10:11:40Z</time>
      </trkpt>
      <trkpt lat="43.01849" lon="-0.0807">
        <ele>535.59</ele>
        <time>2013-12-21T10:11:48Z</time>
      </trkpt>
      <trkpt lat="43.01829" lon="-0.08075">
        <ele>530.79</ele>
        <time>2013-12-21T10:11:53Z</time>
      </trkpt>
      <trkpt lat="43.01822" lon="-0.08077">
        <ele>529.82</ele>
        <time>2013-12-21T10:11:55Z</time>
      </trkpt>
      <trkpt lat="43.01819" lon="-0.08079">
        <ele>527.9</ele>
        <time>2013-12-21T10:11:56Z</time>
      </trkpt>
      <trkpt lat="43.01813" lon="-0.081">
        <ele>525.02</ele>
        <time>2013-12-21T10:12:00Z</time>
      </trkpt>
      <trkpt lat="43.01811" lon="-0.08108">
        <ele>524.06</ele>
        <time>2013-12-21T10:12:02Z</time>
      </trkpt>
      <trkpt lat="43.01804" lon="-0.0812">
        <ele>520.69</ele>
        <time>2013-12-21T10:12:05Z</time>
      </trkpt>
      <trkpt lat="43.01801" lon="-0.08123">
        <ele>520.69</ele>
        <time>2013-12-21T10:12:06Z</time>
      </trkpt>
      <trkpt lat="43.01796" lon="-0.08129">
        <ele>517.33</ele>
        <time>2013-12-21T10:12:08Z</time>
      </trkpt>
      <trkpt lat="43.01793" lon="-0.08135">
        <ele>515.4</ele>
        <time>2013-12-21T10:12:10Z</time>
      </trkpt>
      <trkpt lat="43.01784" lon="-0.0815">
        <ele>510.12</ele>
        <time>2013-12-21T10:12:13Z</time>
      </trkpt>
      <trkpt lat="43.01778" lon="-0.08165">
        <ele>506.75</ele>
        <time>2013-12-21T10:12:16Z</time>
      </trkpt>
      <trkpt lat="43.01775" lon="-0.0817">
        <ele>506.27</ele>
        <time>2013-12-21T10:12:17Z</time>
      </trkpt>
      <trkpt lat="43.01773" lon="-0.08182">
        <ele>504.83</ele>
        <time>2013-12-21T10:12:19Z</time>
      </trkpt>
      <trkpt lat="43.01771" lon="-0.08199">
        <ele>502.43</ele>
        <time>2013-12-21T10:12:22Z</time>
      </trkpt>
      <trkpt lat="43.01768" lon="-0.08235">
        <ele>497.62</ele>
        <time>2013-12-21T10:12:28Z</time>
      </trkpt>
      <trkpt lat="43.01762" lon="-0.08254">
        <ele>493.77</ele>
        <time>2013-12-21T10:12:32Z</time>
      </trkpt>
      <trkpt lat="43.01752" lon="-0.08268">
        <ele>491.37</ele>
        <time>2013-12-21T10:12:36Z</time>
      </trkpt>
      <trkpt lat="43.01752" lon="-0.0827">
        <ele>490.41</ele>
        <time>2013-12-21T10:12:37Z</time>
      </trkpt>
      <trkpt lat="43.01767" lon="-0.08266">
        <ele>486.56</ele>
        <time>2013-12-21T10:12:44Z</time>
      </trkpt>
      <trkpt lat="43.01763" lon="-0.08272">
        <ele>483.2</ele>
        <time>2013-12-21T10:12:49Z</time>
      </trkpt>
      <trkpt lat="43.01746" lon="-0.08288">
        <ele>481.28</ele>
        <time>2013-12-21T10:12:55Z</time>
      </trkpt>
      <trkpt lat="43.01735" lon="-0.083">
        <ele>479.84</ele>
        <time>2013-12-21T10:12:58Z</time>
      </trkpt>
      <trkpt lat="43.01721" lon="-0.0831">
        <ele>476.95</ele>
        <time>2013-12-21T10:13:01Z</time>
      </trkpt>
      <trkpt lat="43.01716" lon="-0.08312">
        <ele>476.95</ele>
        <time>2013-12-21T10:13:02Z</time>
      </trkpt>
      <trkpt lat="43.01711" lon="-0.08312">
        <ele>475.99</ele>
        <time>2013-12-21T10:13:03Z</time>
      </trkpt>
      <trkpt lat="43.01686" lon="-0.08313">
        <ele>473.59</ele>
        <time>2013-12-21T10:13:08Z</time>
      </trkpt>
      <trkpt lat="43.01646" lon="-0.08311">
        <ele>469.74</ele>
        <time>2013-12-21T10:13:14Z</time>
      </trkpt>
      <trkpt lat="43.01635" lon="-0.08315">
        <ele>468.78</ele>
        <time>2013-12-21T10:13:16Z</time>
      </trkpt>
      <trkpt lat="43.01613" lon="-0.08339">
        <ele>464.93</ele>
        <time>2013-12-21T10:13:21Z</time>
      </trkpt>
      <trkpt lat="43.01608" lon="-0.08344">
        <ele>463.97</ele>
        <time>2013-12-21T10:13:22Z</time>
      </trkpt>
      <trkpt lat="43.016" lon="-0.08351">
        <ele>463.01</ele>
        <time>2013-12-21T10:13:24Z</time>
      </trkpt>
      <trkpt lat="43.01592" lon="-0.08354">
        <ele>461.57</ele>
        <time>2013-12-21T10:13:26Z</time>
      </trkpt>
      <trkpt lat="43.01578" lon="-0.08358">
        <ele>458.69</ele>
        <time>2013-12-21T10:13:29Z</time>
      </trkpt>
      <trkpt lat="43.01562" lon="-0.08371">
        <ele>454.36</ele>
        <time>2013-12-21T10:13:32Z</time>
      </trkpt>
      <trkpt lat="43.01557" lon="-0.08374">
        <ele>454.36</ele>
        <time>2013-12-21T10:13:33Z</time>
      </trkpt>
      <trkpt lat="43.01546" lon="-0.08379">
        <ele>453.4</ele>
        <time>2013-12-21T10:13:35Z</time>
      </trkpt>
      <trkpt lat="43.01535" lon="-0.08384">
        <ele>452.44</ele>
        <time>2013-12-21T10:13:38Z</time>
      </trkpt>
      <trkpt lat="43.01536" lon="-0.08391">
        <ele>450.03</ele>
        <time>2013-12-21T10:13:43Z</time>
      </trkpt>
      <trkpt lat="43.01539" lon="-0.08389">
        <ele>449.07</ele>
        <time>2013-12-21T10:13:55Z</time>
      </trkpt>
      <trkpt lat="43.01539" lon="-0.08394">
        <ele>449.07</ele>
        <time>2013-12-21T10:14:18Z</time>
      </trkpt>
      <trkpt lat="43.01539" lon="-0.08393">
        <ele>449.07</ele>
        <time>2013-12-21T10:14:42Z</time>
      </trkpt>
      <trkpt lat="43.01538" lon="-0.08393">
        <ele>448.59</ele>
        <time>2013-12-21T10:15:08Z</time>
      </trkpt>
      <trkpt lat="43.01543" lon="-0.08393">
        <ele>447.15</ele>
        <time>2013-12-21T10:15:15Z</time>
      </trkpt>
      <trkpt lat="43.01549" lon="-0.08394">
        <ele>445.23</ele>
        <time>2013-12-21T10:15:19Z</time>
      </trkpt>
      <trkpt lat="43.01561" lon="-0.08395">
        <ele>441.86</ele>
        <time>2013-12-21T10:15:25Z</time>
      </trkpt>
      <trkpt lat="43.01568" lon="-0.08397">
        <ele>440.9</ele>
        <time>2013-12-21T10:15:28Z</time>
      </trkpt>
      <trkpt lat="43.01588" lon="-0.08399">
        <ele>439.94</ele>
        <time>2013-12-21T10:15:34Z</time>
      </trkpt>
      <trkpt lat="43.01619" lon="-0.08395">
        <ele>436.58</ele>
        <time>2013-12-21T10:15:41Z</time>
      </trkpt>
      <trkpt lat="43.0163" lon="-0.08389">
        <ele>434.65</ele>
        <time>2013-12-21T10:15:44Z</time>
      </trkpt>
      <trkpt lat="43.01643" lon="-0.084">
        <ele>430.33</ele>
        <time>2013-12-21T10:15:48Z</time>
      </trkpt>
      <trkpt lat="43.01658" lon="-0.08414">
        <ele>426.96</ele>
        <time>2013-12-21T10:15:52Z</time>
      </trkpt>
      <trkpt lat="43.01675" lon="-0.08432">
        <ele>422.16</ele>
        <time>2013-12-21T10:15:58Z</time>
      </trkpt>
      <trkpt lat="43.01661" lon="-0.08441">
        <ele>417.35</ele>
        <time>2013-12-21T10:16:03Z</time>
      </trkpt>
      <trkpt lat="43.01657" lon="-0.08443">
        <ele>416.39</ele>
        <time>2013-12-21T10:16:04Z</time>
      </trkpt>
      <trkpt lat="43.01654" lon="-0.08449">
        <ele>415.91</ele>
        <time>2013-12-21T10:16:06Z</time>
      </trkpt>
      <trkpt lat="43.01655" lon="-0.08459">
        <ele>413.02</ele>
        <time>2013-12-21T10:16:09Z</time>
      </trkpt>
      <trkpt lat="43.01663" lon="-0.08462">
        <ele>411.58</ele>
        <time>2013-12-21T10:16:11Z</time>
      </trkpt>
      <trkpt lat="43.01674" lon="-0.08461">
        <ele>413.5</ele>
        <time>2013-12-21T10:16:15Z</time>
      </trkpt>
      <trkpt lat="43.01693" lon="-0.08462">
        <ele>413.5</ele>
        <time>2013-12-21T10:16:22Z</time>
      </trkpt>
      <trkpt lat="43.01703" lon="-0.08461">
        <ele>413.02</ele>
        <time>2013-12-21T10:16:24Z</time>
      </trkpt>
      <trkpt lat="43.01727" lon="-0.08456">
        <ele>415.43</ele>
        <time>2013-12-21T10:16:32Z</time>
      </trkpt>
      <trkpt lat="43.01737" lon="-0.08452">
        <ele>416.87</ele>
        <time>2013-12-21T10:16:35Z</time>
      </trkpt>
      <trkpt lat="43.01745" lon="-0.08444">
        <ele>418.31</ele>
        <time>2013-12-21T10:16:38Z</time>
      </trkpt>
      <trkpt lat="43.01774" lon="-0.08426">
        <ele>417.35</ele>
        <time>2013-12-21T10:16:50Z</time>
      </trkpt>
      <trkpt lat="43.0178" lon="-0.08416">
        <ele>415.43</ele>
        <time>2013-12-21T10:16:54Z</time>
      </trkpt>
      <trkpt lat="43.01788" lon="-0.08409">
        <ele>416.39</ele>
        <time>2013-12-21T10:17:04Z</time>
      </trkpt>
      <trkpt lat="43.0179" lon="-0.08406">
        <ele>415.91</ele>
        <time>2013-12-21T10:17:19Z</time>
      </trkpt>
      <trkpt lat="43.01796" lon="-0.08402">
        <ele>416.39</ele>
        <time>2013-12-21T10:17:41Z</time>
      </trkpt>
      <trkpt lat="43.01796" lon="-0.08409">
        <ele>416.87</ele>
        <time>2013-12-21T10:18:10Z</time>
      </trkpt>
      <trkpt lat="43.01796" lon="-0.08409">
        <ele>416.87</ele>
        <time>2013-12-21T10:18:28Z</time>
      </trkpt>
      <trkpt lat="43.01796" lon="-0.08409">
        <ele>416.87</ele>
        <time>2013-12-21T10:18:47Z</time>
      </trkpt>
      <trkpt lat="43.01797" lon="-0.08408">
        <ele>416.87</ele>
        <time>2013-12-21T10:19:20Z</time>
      </trkpt>
      <trkpt lat="43.01796" lon="-0.08407">
        <ele>416.87</ele>
        <time>2013-12-21T10:19:52Z</time>
      </trkpt>
      <trkpt lat="43.01796" lon="-0.08408">
        <ele>416.87</ele>
        <time>2013-12-21T10:19:57Z</time>
      </trkpt>
      <trkpt lat="43.018" lon="-0.08406">
        <ele>414.95</ele>
        <time>2013-12-21T10:19:59Z</time>
      </trkpt>
      <trkpt lat="43.01811" lon="-0.08395">
        <ele>412.06</ele>
        <time>2013-12-21T10:20:03Z</time>
      </trkpt>
      <trkpt lat="43.01819" lon="-0.08388">
        <ele>411.1</ele>
        <time>2013-12-21T10:20:05Z</time>
      </trkpt>
      <trkpt lat="43.01841" lon="-0.08379">
        <ele>414.47</ele>
        <time>2013-12-21T10:20:10Z</time>
      </trkpt>
      <trkpt lat="43.01848" lon="-0.08377">
        <ele>415.91</ele>
        <time>2013-12-21T10:20:13Z</time>
      </trkpt>
      <trkpt lat="43.01864" lon="-0.08374">
        <ele>416.87</ele>
        <time>2013-12-21T10:20:19Z</time>
      </trkpt>
      <trkpt lat="43.01875" lon="-0.08374">
        <ele>415.43</ele>
        <time>2013-12-21T10:20:23Z</time>
      </trkpt>
      <trkpt lat="43.01897" lon="-0.08357">
        <ele>415.91</ele>
        <time>2013-12-21T10:20:31Z</time>
      </trkpt>
      <trkpt lat="43.01906" lon="-0.08356">
        <ele>415.43</ele>
        <time>2013-12-21T10:20:34Z</time>
      </trkpt>
      <trkpt lat="43.01929" lon="-0.08347">
        <ele>413.5</ele>
        <time>2013-12-21T10:20:39Z</time>
      </trkpt>
      <trkpt lat="43.01943" lon="-0.0833">
        <ele>413.02</ele>
        <time>2013-12-21T10:20:43Z</time>
      </trkpt>
      <trkpt lat="43.0195" lon="-0.08315">
        <ele>413.5</ele>
        <time>2013-12-21T10:20:47Z</time>
      </trkpt>
      <trkpt lat="43.01973" lon="-0.08313">
        <ele>414.95</ele>
        <time>2013-12-21T10:20:54Z</time>
      </trkpt>
      <trkpt lat="43.01989" lon="-0.08312">
        <ele>417.35</ele>
        <time>2013-12-21T10:20:59Z</time>
      </trkpt>
      <trkpt lat="43.02002" lon="-0.08305">
        <ele>415.91</ele>
        <time>2013-12-21T10:21:02Z</time>
      </trkpt>
      <trkpt lat="43.02025" lon="-0.08282">
        <ele>415.43</ele>
        <time>2013-12-21T10:21:09Z</time>
      </trkpt>
      <trkpt lat="43.0203" lon="-0.08265">
        <ele>413.02</ele>
        <time>2013-12-21T10:21:13Z</time>
      </trkpt>
      <trkpt lat="43.02037" lon="-0.08267">
        <ele>411.1</ele>
        <time>2013-12-21T10:21:15Z</time>
      </trkpt>
      <trkpt lat="43.02047" lon="-0.08273">
        <ele>410.14</ele>
        <time>2013-12-21T10:21:18Z</time>
      </trkpt>
      <trkpt lat="43.02059" lon="-0.08286">
        <ele>407.74</ele>
        <time>2013-12-21T10:21:22Z</time>
      </trkpt>
      <trkpt lat="43.02072" lon="-0.08292">
        <ele>405.81</ele>
        <time>2013-12-21T10:21:27Z</time>
      </trkpt>
      <trkpt lat="43.02082" lon="-0.08284">
        <ele>406.29</ele>
        <time>2013-12-21T10:21:33Z</time>
      </trkpt>
      <trkpt lat="43.02104" lon="-0.08256">
        <ele>406.77</ele>
        <time>2013-12-21T10:21:45Z</time>
      </trkpt>
      <trkpt lat="43.02119" lon="-0.08249">
        <ele>406.29</ele>
        <time>2013-12-21T10:21:49Z</time>
      </trkpt>
      <trkpt lat="43.0213" lon="-0.08251">
        <ele>407.26</ele>
        <time>2013-12-21T10:21:53Z</time>
      </trkpt>
      <trkpt lat="43.02157" lon="-0.08242">
        <ele>408.22</ele>
        <time>2013-12-21T10:22:04Z</time>
      </trkpt>
      <trkpt lat="43.02181" lon="-0.08224">
        <ele>407.74</ele>
        <time>2013-12-21T10:22:16Z</time>
      </trkpt>
      <trkpt lat="43.02195" lon="-0.08216">
        <ele>408.22</ele>
        <time>2013-12-21T10:22:21Z</time>
      </trkpt>
      <trkpt lat="43.02217" lon="-0.0821">
        <ele>409.18</ele>
        <time>2013-12-21T10:22:27Z</time>
      </trkpt>
      <trkpt lat="43.02221" lon="-0.08226">
        <ele>409.18</ele>
        <time>2013-12-21T10:22:36Z</time>
      </trkpt>
      <trkpt lat="43.02223" lon="-0.08246">
        <ele>409.66</ele>
        <time>2013-12-21T10:22:46Z</time>
      </trkpt>
      <trkpt lat="43.02222" lon="-0.08252">
        <ele>409.66</ele>
        <time>2013-12-21T10:22:49Z</time>
      </trkpt>
      <trkpt lat="43.02222" lon="-0.08262">
        <ele>409.66</ele>
        <time>2013-12-21T10:22:53Z</time>
      </trkpt>
      <trkpt lat="43.02222" lon="-0.0828">
        <ele>409.18</ele>
        <time>2013-12-21T10:23:00Z</time>
      </trkpt>
      <trkpt lat="43.02224" lon="-0.08307">
        <ele>410.14</ele>
        <time>2013-12-21T10:23:12Z</time>
      </trkpt>
      <trkpt lat="43.02225" lon="-0.08314">
        <ele>410.14</ele>
        <time>2013-12-21T10:23:28Z</time>
      </trkpt>
      <trkpt lat="43.02224" lon="-0.08315">
        <ele>410.14</ele>
        <time>2013-12-21T10:23:47Z</time>
      </trkpt>
      <trkpt lat="43.02224" lon="-0.08316">
        <ele>410.62</ele>
        <time>2013-12-21T10:24:00Z</time>
      </trkpt>
      <trkpt lat="43.02224" lon="-0.08318">
        <ele>410.14</ele>
        <time>2013-12-21T10:24:05Z</time>
      </trkpt>
      <trkpt lat="43.02227" lon="-0.08325">
        <ele>409.66</ele>
        <time>2013-12-21T10:24:15Z</time>
      </trkpt>
      <trkpt lat="43.02228" lon="-0.08326">
        <ele>409.66</ele>
        <time>2013-12-21T10:24:41Z</time>
      </trkpt>
      <trkpt lat="43.02227" lon="-0.08325">
        <ele>410.14</ele>
        <time>2013-12-21T10:25:10Z</time>
      </trkpt>
      <trkpt lat="43.02229" lon="-0.08324">
        <ele>410.14</ele>
        <time>2013-12-21T10:25:46Z</time>
      </trkpt>
      <trkpt lat="43.02228" lon="-0.08324">
        <ele>410.62</ele>
        <time>2013-12-21T10:25:57Z</time>
      </trkpt>
      <trkpt lat="43.02228" lon="-0.08321">
        <ele>411.58</ele>
        <time>2013-12-21T10:26:14Z</time>
      </trkpt>
      <trkpt lat="43.02228" lon="-0.08321">
        <ele>411.58</ele>
        <time>2013-12-21T10:26:37Z</time>
      </trkpt>
      <trkpt lat="43.02228" lon="-0.08321">
        <ele>411.58</ele>
        <time>2013-12-21T10:26:56Z</time>
      </trkpt>
      <trkpt lat="43.02228" lon="-0.08321">
        <ele>412.06</ele>
        <time>2013-12-21T10:27:23Z</time>
      </trkpt>
      <trkpt lat="43.02229" lon="-0.08322">
        <ele>412.06</ele>
        <time>2013-12-21T10:27:48Z</time>
      </trkpt>
      <trkpt lat="43.02229" lon="-0.08323">
        <ele>412.06</ele>
        <time>2013-12-21T10:27:53Z</time>
      </trkpt>
      <trkpt lat="43.02237" lon="-0.08319">
        <ele>411.1</ele>
        <time>2013-12-21T10:27:58Z</time>
      </trkpt>
      <trkpt lat="43.02263" lon="-0.08313">
        <ele>409.66</ele>
        <time>2013-12-21T10:28:07Z</time>
      </trkpt>
      <trkpt lat="43.02272" lon="-0.08321">
        <ele>409.18</ele>
        <time>2013-12-21T10:28:11Z</time>
      </trkpt>
      <trkpt lat="43.0231" lon="-0.08329">
        <ele>408.7</ele>
        <time>2013-12-21T10:28:22Z</time>
      </trkpt>
      <trkpt lat="43.02345" lon="-0.0834">
        <ele>407.74</ele>
        <time>2013-12-21T10:28:34Z</time>
      </trkpt>
      <trkpt lat="43.02362" lon="-0.08347">
        <ele>407.74</ele>
        <time>2013-12-21T10:28:40Z</time>
      </trkpt>
      <trkpt lat="43.02395" lon="-0.08368">
        <ele>408.22</ele>
        <time>2013-12-21T10:28:51Z</time>
      </trkpt>
      <trkpt lat="43.02425" lon="-0.0836">
        <ele>407.74</ele>
        <time>2013-12-21T10:29:00Z</time>
      </trkpt>
      <trkpt lat="43.02435" lon="-0.08369">
        <ele>407.74</ele>
        <time>2013-12-21T10:29:05Z</time>
      </trkpt>
      <trkpt lat="43.02437" lon="-0.08414">
        <ele>408.7</ele>
        <time>2013-12-21T10:29:17Z</time>
      </trkpt>
      <trkpt lat="43.02432" lon="-0.08421">
        <ele>409.18</ele>
        <time>2013-12-21T10:29:20Z</time>
      </trkpt>
      <trkpt lat="43.02414" lon="-0.08431">
        <ele>409.66</ele>
        <time>2013-12-21T10:29:28Z</time>
      </trkpt>
      <trkpt lat="43.02398" lon="-0.08471">
        <ele>410.14</ele>
        <time>2013-12-21T10:29:40Z</time>
      </trkpt>
      <trkpt lat="43.02389" lon="-0.08531">
        <ele>411.1</ele>
        <time>2013-12-21T10:29:55Z</time>
      </trkpt>
      <trkpt lat="43.02379" lon="-0.08587">
        <ele>411.1</ele>
        <time>2013-12-21T10:30:09Z</time>
      </trkpt>
      <trkpt lat="43.02369" lon="-0.08645">
        <ele>412.06</ele>
        <time>2013-12-21T10:30:23Z</time>
      </trkpt>
      <trkpt lat="43.02369" lon="-0.08661">
        <ele>412.54</ele>
        <time>2013-12-21T10:30:27Z</time>
      </trkpt>
      <trkpt lat="43.02366" lon="-0.0867">
        <ele>412.54</ele>
        <time>2013-12-21T10:30:37Z</time>
      </trkpt>
      <trkpt lat="43.02366" lon="-0.0867">
        <ele>413.02</ele>
        <time>2013-12-21T10:30:39Z</time>
      </trkpt>
      <trkpt lat="43.0236" lon="-0.08684">
        <ele>412.54</ele>
        <time>2013-12-21T10:30:44Z</time>
      </trkpt>
      <trkpt lat="43.02346" lon="-0.08719">
        <ele>413.02</ele>
        <time>2013-12-21T10:30:54Z</time>
      </trkpt>
      <trkpt lat="43.02346" lon="-0.0872">
        <ele>413.02</ele>
        <time>2013-12-21T10:30:59Z</time>
      </trkpt>
      <trkpt lat="43.02351" lon="-0.08709">
        <ele>412.54</ele>
        <time>2013-12-21T10:31:03Z</time>
      </trkpt>
      <trkpt lat="43.0236" lon="-0.08687">
        <ele>412.54</ele>
        <time>2013-12-21T10:31:08Z</time>
      </trkpt>
      <trkpt lat="43.0237" lon="-0.08677">
        <ele>412.54</ele>
        <time>2013-12-21T10:31:11Z</time>
      </trkpt>
      <trkpt lat="43.02384" lon="-0.08688">
        <ele>413.5</ele>
        <time>2013-12-21T10:31:16Z</time>
      </trkpt>
      <trkpt lat="43.02413" lon="-0.08725">
        <ele>412.54</ele>
        <time>2013-12-21T10:31:28Z</time>
      </trkpt>
      <trkpt lat="43.02455" lon="-0.08724">
        <ele>413.98</ele>
        <time>2013-12-21T10:31:42Z</time>
      </trkpt>
      <trkpt lat="43.02471" lon="-0.08748">
        <ele>413.5</ele>
        <time>2013-12-21T10:31:51Z</time>
      </trkpt>
      <trkpt lat="43.02474" lon="-0.08753">
        <ele>415.43</ele>
        <time>2013-12-21T10:31:53Z</time>
      </trkpt>
      <trkpt lat="43.02491" lon="-0.08803">
        <ele>415.91</ele>
        <time>2013-12-21T10:32:07Z</time>
      </trkpt>
      <trkpt lat="43.02507" lon="-0.0886">
        <ele>416.87</ele>
        <time>2013-12-21T10:32:21Z</time>
      </trkpt>
      <trkpt lat="43.02544" lon="-0.08904">
        <ele>418.31</ele>
        <time>2013-12-21T10:32:36Z</time>
      </trkpt>
      <trkpt lat="43.02588" lon="-0.08934">
        <ele>418.79</ele>
        <time>2013-12-21T10:32:51Z</time>
      </trkpt>
      <trkpt lat="43.0262" lon="-0.08963">
        <ele>419.75</ele>
        <time>2013-12-21T10:33:03Z</time>
      </trkpt>
      <trkpt lat="43.02644" lon="-0.09018">
        <ele>420.71</ele>
        <time>2013-12-21T10:33:18Z</time>
      </trkpt>
      <trkpt lat="43.0266" lon="-0.09088">
        <ele>421.68</ele>
        <time>2013-12-21T10:33:35Z</time>
      </trkpt>
      <trkpt lat="43.02676" lon="-0.09136">
        <ele>423.6</ele>
        <time>2013-12-21T10:33:47Z</time>
      </trkpt>
      <trkpt lat="43.02709" lon="-0.09174">
        <ele>424.08</ele>
        <time>2013-12-21T10:34:00Z</time>
      </trkpt>
      <trkpt lat="43.02743" lon="-0.09214">
        <ele>425.04</ele>
        <time>2013-12-21T10:34:14Z</time>
      </trkpt>
      <trkpt lat="43.02745" lon="-0.09217">
        <ele>425.52</ele>
        <time>2013-12-21T10:34:15Z</time>
      </trkpt>
      <trkpt lat="43.02751" lon="-0.09248">
        <ele>426.48</ele>
        <time>2013-12-21T10:34:25Z</time>
      </trkpt>
      <trkpt lat="43.02749" lon="-0.09249">
        <ele>426.48</ele>
        <time>2013-12-21T10:34:26Z</time>
      </trkpt>
      <trkpt lat="43.02734" lon="-0.09267">
        <ele>426</ele>
        <time>2013-12-21T10:34:33Z</time>
      </trkpt>
      <trkpt lat="43.02726" lon="-0.09281">
        <ele>426</ele>
        <time>2013-12-21T10:34:37Z</time>
      </trkpt>
      <trkpt lat="43.02671" lon="-0.09324">
        <ele>426.48</ele>
        <time>2013-12-21T10:34:54Z</time>
      </trkpt>
      <trkpt lat="43.02601" lon="-0.09373">
        <ele>426</ele>
        <time>2013-12-21T10:35:12Z</time>
      </trkpt>
      <trkpt lat="43.02593" lon="-0.09379">
        <ele>426</ele>
        <time>2013-12-21T10:35:14Z</time>
      </trkpt>
      <trkpt lat="43.0257" lon="-0.09394">
        <ele>425.52</ele>
        <time>2013-12-21T10:35:19Z</time>
      </trkpt>
      <trkpt lat="43.02562" lon="-0.094">
        <ele>425.52</ele>
        <time>2013-12-21T10:35:21Z</time>
      </trkpt>
      <trkpt lat="43.02526" lon="-0.09438">
        <ele>424.56</ele>
        <time>2013-12-21T10:35:31Z</time>
      </trkpt>
      <trkpt lat="43.02491" lon="-0.09481">
        <ele>423.6</ele>
        <time>2013-12-21T10:35:42Z</time>
      </trkpt>
      <trkpt lat="43.02471" lon="-0.09506">
        <ele>423.6</ele>
        <time>2013-12-21T10:35:49Z</time>
      </trkpt>
      <trkpt lat="43.0246" lon="-0.09522">
        <ele>424.08</ele>
        <time>2013-12-21T10:35:53Z</time>
      </trkpt>
      <trkpt lat="43.02442" lon="-0.09546">
        <ele>424.08</ele>
        <time>2013-12-21T10:35:59Z</time>
      </trkpt>
      <trkpt lat="43.024" lon="-0.09607">
        <ele>424.56</ele>
        <time>2013-12-21T10:36:13Z</time>
      </trkpt>
      <trkpt lat="43.02352" lon="-0.0965">
        <ele>425.52</ele>
        <time>2013-12-21T10:36:28Z</time>
      </trkpt>
      <trkpt lat="43.02325" lon="-0.09659">
        <ele>425.52</ele>
        <time>2013-12-21T10:36:36Z</time>
      </trkpt>
      <trkpt lat="43.0233" lon="-0.09677">
        <ele>426.48</ele>
        <time>2013-12-21T10:36:44Z</time>
      </trkpt>
      <trkpt lat="43.02338" lon="-0.09707">
        <ele>427.92</ele>
        <time>2013-12-21T10:36:56Z</time>
      </trkpt>
      <trkpt lat="43.02339" lon="-0.0971">
        <ele>428.4</ele>
        <time>2013-12-21T10:36:57Z</time>
      </trkpt>
      <trkpt lat="43.02344" lon="-0.09718">
        <ele>429.85</ele>
        <time>2013-12-21T10:37:01Z</time>
      </trkpt>
      <trkpt lat="43.02352" lon="-0.09727">
        <ele>430.33</ele>
        <time>2013-12-21T10:37:05Z</time>
      </trkpt>
      <trkpt lat="43.02353" lon="-0.09735">
        <ele>431.29</ele>
        <time>2013-12-21T10:37:08Z</time>
      </trkpt>
      <trkpt lat="43.02354" lon="-0.09757">
        <ele>432.73</ele>
        <time>2013-12-21T10:37:16Z</time>
      </trkpt>
      <trkpt lat="43.02355" lon="-0.09764">
        <ele>433.69</ele>
        <time>2013-12-21T10:37:19Z</time>
      </trkpt>
      <trkpt lat="43.02361" lon="-0.09783">
        <ele>437.06</ele>
        <time>2013-12-21T10:37:31Z</time>
      </trkpt>
      <trkpt lat="43.02372" lon="-0.09792">
        <ele>439.46</ele>
        <time>2013-12-21T10:37:42Z</time>
      </trkpt>
      <trkpt lat="43.02374" lon="-0.09805">
        <ele>442.82</ele>
        <time>2013-12-21T10:37:52Z</time>
      </trkpt>
      <trkpt lat="43.02381" lon="-0.09812">
        <ele>444.27</ele>
        <time>2013-12-21T10:38:02Z</time>
      </trkpt>
      <trkpt lat="43.02381" lon="-0.09814">
        <ele>444.75</ele>
        <time>2013-12-21T10:38:19Z</time>
      </trkpt>
      <trkpt lat="43.02383" lon="-0.09814">
        <ele>444.75</ele>
        <time>2013-12-21T10:38:43Z</time>
      </trkpt>
      <trkpt lat="43.02382" lon="-0.09814">
        <ele>444.75</ele>
        <time>2013-12-21T10:39:04Z</time>
      </trkpt>
      <trkpt lat="43.02381" lon="-0.09815">
        <ele>444.75</ele>
        <time>2013-12-21T10:39:34Z</time>
      </trkpt>
      <trkpt lat="43.02381" lon="-0.09815">
        <ele>444.75</ele>
        <time>2013-12-21T10:40:07Z</time>
      </trkpt>
      <trkpt lat="43.02381" lon="-0.09814">
        <ele>445.71</ele>
        <time>2013-12-21T10:40:36Z</time>
      </trkpt>
      <trkpt lat="43.02381" lon="-0.09814">
        <ele>445.23</ele>
        <time>2013-12-21T10:41:00Z</time>
      </trkpt>
      <trkpt lat="43.02382" lon="-0.09815">
        <ele>449.07</ele>
        <time>2013-12-21T10:41:10Z</time>
      </trkpt>
      <trkpt lat="43.02382" lon="-0.09815">
        <ele>445.71</ele>
        <time>2013-12-21T10:41:11Z</time>
      </trkpt>
      <trkpt lat="43.02382" lon="-0.09815">
        <ele>450.03</ele>
        <time>2013-12-21T10:41:12Z</time>
      </trkpt>
      <trkpt lat="43.02382" lon="-0.09815">
        <ele>438.02</ele>
        <time>2013-12-21T10:41:13Z</time>
      </trkpt>
      <trkpt lat="43.02382" lon="-0.09815">
        <ele>447.63</ele>
        <time>2013-12-21T10:41:14Z</time>
      </trkpt>
      <trkpt lat="43.02382" lon="-0.09815">
        <ele>439.46</ele>
        <time>2013-12-21T10:41:15Z</time>
      </trkpt>
      <trkpt lat="43.02382" lon="-0.09815">
        <ele>445.71</ele>
        <time>2013-12-21T10:41:16Z</time>
      </trkpt>
      <trkpt lat="43.02382" lon="-0.09815">
        <ele>449.07</ele>
        <time>2013-12-21T10:41:17Z</time>
      </trkpt>
      <trkpt lat="43.02382" lon="-0.09815">
        <ele>445.23</ele>
        <time>2013-12-21T10:41:19Z</time>
      </trkpt>
      <trkpt lat="43.02382" lon="-0.09815">
        <ele>445.71</ele>
        <time>2013-12-21T10:41:20Z</time>
      </trkpt>
      <trkpt lat="43.02382" lon="-0.09815">
        <ele>445.71</ele>
        <time>2013-12-21T10:41:27Z</time>
      </trkpt>
      <trkpt lat="43.02382" lon="-0.09815">
        <ele>445.71</ele>
        <time>2013-12-21T10:41:44Z</time>
      </trkpt>
      <trkpt lat="43.02383" lon="-0.09816">
        <ele>445.71</ele>
        <time>2013-12-21T10:42:11Z</time>
      </trkpt>
      <trkpt lat="43.02382" lon="-0.09817">
        <ele>445.71</ele>
        <time>2013-12-21T10:42:42Z</time>
      </trkpt>
      <trkpt lat="43.02383" lon="-0.09817">
        <ele>445.71</ele>
        <time>2013-12-21T10:42:59Z</time>
      </trkpt>
      <trkpt lat="43.02397" lon="-0.09813">
        <ele>448.11</ele>
        <time>2013-12-21T10:43:10Z</time>
      </trkpt>
      <trkpt lat="43.02417" lon="-0.09798">
        <ele>451</ele>
        <time>2013-12-21T10:43:20Z</time>
      </trkpt>
      <trkpt lat="43.02432" lon="-0.09788">
        <ele>454.36</ele>
        <time>2013-12-21T10:43:30Z</time>
      </trkpt>
      <trkpt lat="43.02446" lon="-0.09778">
        <ele>455.8</ele>
        <time>2013-12-21T10:43:39Z</time>
      </trkpt>
      <trkpt lat="43.0246" lon="-0.09773">
        <ele>457.72</ele>
        <time>2013-12-21T10:43:48Z</time>
      </trkpt>
      <trkpt lat="43.02471" lon="-0.09775">
        <ele>459.65</ele>
        <time>2013-12-21T10:43:56Z</time>
      </trkpt>
      <trkpt lat="43.02485" lon="-0.09782">
        <ele>462.53</ele>
        <time>2013-12-21T10:44:09Z</time>
      </trkpt>
      <trkpt lat="43.02498" lon="-0.09788">
        <ele>465.42</ele>
        <time>2013-12-21T10:44:20Z</time>
      </trkpt>
      <trkpt lat="43.02506" lon="-0.0979">
        <ele>466.86</ele>
        <time>2013-12-21T10:44:25Z</time>
      </trkpt>
      <trkpt lat="43.02511" lon="-0.09796">
        <ele>469.26</ele>
        <time>2013-12-21T10:44:33Z</time>
      </trkpt>
      <trkpt lat="43.02508" lon="-0.09815">
        <ele>472.63</ele>
        <time>2013-12-21T10:44:44Z</time>
      </trkpt>
      <trkpt lat="43.02505" lon="-0.09821">
        <ele>473.59</ele>
        <time>2013-12-21T10:44:49Z</time>
      </trkpt>
      <trkpt lat="43.02504" lon="-0.09826">
        <ele>474.07</ele>
        <time>2013-12-21T10:45:05Z</time>
      </trkpt>
      <trkpt lat="43.02503" lon="-0.0983">
        <ele>474.55</ele>
        <time>2013-12-21T10:45:29Z</time>
      </trkpt>
      <trkpt lat="43.02504" lon="-0.09829">
        <ele>474.55</ele>
        <time>2013-12-21T10:45:54Z</time>
      </trkpt>
      <trkpt lat="43.02503" lon="-0.0983">
        <ele>474.55</ele>
        <time>2013-12-21T10:46:19Z</time>
      </trkpt>
      <trkpt lat="43.02503" lon="-0.0983">
        <ele>480.32</ele>
        <time>2013-12-21T10:46:38Z</time>
      </trkpt>
      <trkpt lat="43.02503" lon="-0.0983">
        <ele>475.03</ele>
        <time>2013-12-21T10:46:39Z</time>
      </trkpt>
      <trkpt lat="43.02502" lon="-0.0983">
        <ele>475.03</ele>
        <time>2013-12-21T10:47:04Z</time>
      </trkpt>
      <trkpt lat="43.02503" lon="-0.09831">
        <ele>475.03</ele>
        <time>2013-12-21T10:47:34Z</time>
      </trkpt>
      <trkpt lat="43.02503" lon="-0.09831">
        <ele>479.84</ele>
        <time>2013-12-21T10:48:03Z</time>
      </trkpt>
      <trkpt lat="43.02503" lon="-0.09831">
        <ele>475.03</ele>
        <time>2013-12-21T10:48:04Z</time>
      </trkpt>
      <trkpt lat="43.02502" lon="-0.09832">
        <ele>475.03</ele>
        <time>2013-12-21T10:48:33Z</time>
      </trkpt>
      <trkpt lat="43.02503" lon="-0.09833">
        <ele>475.51</ele>
        <time>2013-12-21T10:49:04Z</time>
      </trkpt>
      <trkpt lat="43.025" lon="-0.09836">
        <ele>476.47</ele>
        <time>2013-12-21T10:49:22Z</time>
      </trkpt>
      <trkpt lat="43.02496" lon="-0.09842">
        <ele>477.43</ele>
        <time>2013-12-21T10:49:35Z</time>
      </trkpt>
      <trkpt lat="43.02494" lon="-0.09844">
        <ele>477.43</ele>
        <time>2013-12-21T10:49:38Z</time>
      </trkpt>
      <trkpt lat="43.02484" lon="-0.09852">
        <ele>477.91</ele>
        <time>2013-12-21T10:49:44Z</time>
      </trkpt>
      <trkpt lat="43.02475" lon="-0.09864">
        <ele>480.32</ele>
        <time>2013-12-21T10:49:53Z</time>
      </trkpt>
      <trkpt lat="43.02474" lon="-0.09879">
        <ele>481.76</ele>
        <time>2013-12-21T10:49:59Z</time>
      </trkpt>
      <trkpt lat="43.02479" lon="-0.09894">
        <ele>483.68</ele>
        <time>2013-12-21T10:50:07Z</time>
      </trkpt>
      <trkpt lat="43.02481" lon="-0.09926">
        <ele>485.12</ele>
        <time>2013-12-21T10:50:19Z</time>
      </trkpt>
      <trkpt lat="43.02483" lon="-0.09937">
        <ele>485.6</ele>
        <time>2013-12-21T10:50:23Z</time>
      </trkpt>
      <trkpt lat="43.02483" lon="-0.09941">
        <ele>486.08</ele>
        <time>2013-12-21T10:50:25Z</time>
      </trkpt>
      <trkpt lat="43.02497" lon="-0.0997">
        <ele>486.56</ele>
        <time>2013-12-21T10:50:38Z</time>
      </trkpt>
      <trkpt lat="43.02504" lon="-0.09986">
        <ele>487.53</ele>
        <time>2013-12-21T10:50:45Z</time>
      </trkpt>
      <trkpt lat="43.02509" lon="-0.1">
        <ele>488.01</ele>
        <time>2013-12-21T10:50:50Z</time>
      </trkpt>
      <trkpt lat="43.02514" lon="-0.10012">
        <ele>488.49</ele>
        <time>2013-12-21T10:50:54Z</time>
      </trkpt>
      <trkpt lat="43.02527" lon="-0.10043">
        <ele>490.89</ele>
        <time>2013-12-21T10:51:05Z</time>
      </trkpt>
      <trkpt lat="43.02528" lon="-0.10045">
        <ele>490.89</ele>
        <time>2013-12-21T10:51:06Z</time>
      </trkpt>
      <trkpt lat="43.02525" lon="-0.10064">
        <ele>491.37</ele>
        <time>2013-12-21T10:51:15Z</time>
      </trkpt>
      <trkpt lat="43.02517" lon="-0.10074">
        <ele>491.37</ele>
        <time>2013-12-21T10:51:21Z</time>
      </trkpt>
      <trkpt lat="43.02507" lon="-0.1009">
        <ele>492.33</ele>
        <time>2013-12-21T10:51:30Z</time>
      </trkpt>
      <trkpt lat="43.02492" lon="-0.10117">
        <ele>493.77</ele>
        <time>2013-12-21T10:51:43Z</time>
      </trkpt>
      <trkpt lat="43.0249" lon="-0.10121">
        <ele>494.26</ele>
        <time>2013-12-21T10:51:46Z</time>
      </trkpt>
      <trkpt lat="43.0248" lon="-0.10129">
        <ele>495.22</ele>
        <time>2013-12-21T10:51:52Z</time>
      </trkpt>
      <trkpt lat="43.0247" lon="-0.10139">
        <ele>497.14</ele>
        <time>2013-12-21T10:51:58Z</time>
      </trkpt>
      <trkpt lat="43.02465" lon="-0.10148">
        <ele>497.62</ele>
        <time>2013-12-21T10:52:03Z</time>
      </trkpt>
      <trkpt lat="43.02463" lon="-0.10162">
        <ele>499.54</ele>
        <time>2013-12-21T10:52:09Z</time>
      </trkpt>
      <trkpt lat="43.02461" lon="-0.10178">
        <ele>501.46</ele>
        <time>2013-12-21T10:52:16Z</time>
      </trkpt>
      <trkpt lat="43.02454" lon="-0.10188">
        <ele>501.95</ele>
        <time>2013-12-21T10:52:21Z</time>
      </trkpt>
      <trkpt lat="43.02438" lon="-0.10211">
        <ele>502.43</ele>
        <time>2013-12-21T10:52:31Z</time>
      </trkpt>
      <trkpt lat="43.02433" lon="-0.10218">
        <ele>503.39</ele>
        <time>2013-12-21T10:52:34Z</time>
      </trkpt>
      <trkpt lat="43.02427" lon="-0.1023">
        <ele>503.87</ele>
        <time>2013-12-21T10:52:39Z</time>
      </trkpt>
      <trkpt lat="43.02424" lon="-0.10234">
        <ele>504.83</ele>
        <time>2013-12-21T10:52:41Z</time>
      </trkpt>
      <trkpt lat="43.02412" lon="-0.10251">
        <ele>507.71</ele>
        <time>2013-12-21T10:52:50Z</time>
      </trkpt>
      <trkpt lat="43.02402" lon="-0.1026">
        <ele>509.16</ele>
        <time>2013-12-21T10:52:57Z</time>
      </trkpt>
      <trkpt lat="43.02379" lon="-0.10258">
        <ele>509.64</ele>
        <time>2013-12-21T10:53:13Z</time>
      </trkpt>
      <trkpt lat="43.02365" lon="-0.1025">
        <ele>510.12</ele>
        <time>2013-12-21T10:53:24Z</time>
      </trkpt>
      <trkpt lat="43.02363" lon="-0.10248">
        <ele>510.12</ele>
        <time>2013-12-21T10:53:25Z</time>
      </trkpt>
      <trkpt lat="43.02343" lon="-0.10257">
        <ele>508.19</ele>
        <time>2013-12-21T10:53:32Z</time>
      </trkpt>
      <trkpt lat="43.02322" lon="-0.10266">
        <ele>510.12</ele>
        <time>2013-12-21T10:53:41Z</time>
      </trkpt>
      <trkpt lat="43.0232" lon="-0.10267">
        <ele>509.64</ele>
        <time>2013-12-21T10:53:42Z</time>
      </trkpt>
      <trkpt lat="43.02317" lon="-0.10268">
        <ele>509.64</ele>
        <time>2013-12-21T10:53:43Z</time>
      </trkpt>
      <trkpt lat="43.02315" lon="-0.10269">
        <ele>509.64</ele>
        <time>2013-12-21T10:53:44Z</time>
      </trkpt>
      <trkpt lat="43.02313" lon="-0.10269">
        <ele>509.64</ele>
        <time>2013-12-21T10:53:45Z</time>
      </trkpt>
      <trkpt lat="43.0231" lon="-0.10269">
        <ele>509.16</ele>
        <time>2013-12-21T10:53:46Z</time>
      </trkpt>
      <trkpt lat="43.02309" lon="-0.1027">
        <ele>509.64</ele>
        <time>2013-12-21T10:53:47Z</time>
      </trkpt>
      <trkpt lat="43.02306" lon="-0.10271">
        <ele>509.64</ele>
        <time>2013-12-21T10:53:48Z</time>
      </trkpt>
      <trkpt lat="43.02304" lon="-0.10271">
        <ele>509.16</ele>
        <time>2013-12-21T10:53:49Z</time>
      </trkpt>
      <trkpt lat="43.02303" lon="-0.10273">
        <ele>509.16</ele>
        <time>2013-12-21T10:53:50Z</time>
      </trkpt>
      <trkpt lat="43.023" lon="-0.10276">
        <ele>509.64</ele>
        <time>2013-12-21T10:53:53Z</time>
      </trkpt>
      <trkpt lat="43.02299" lon="-0.10282">
        <ele>510.6</ele>
        <time>2013-12-21T10:53:57Z</time>
      </trkpt>
      <trkpt lat="43.02298" lon="-0.10292">
        <ele>511.56</ele>
        <time>2013-12-21T10:54:02Z</time>
      </trkpt>
      <trkpt lat="43.02295" lon="-0.10319">
        <ele>514.44</ele>
        <time>2013-12-21T10:54:13Z</time>
      </trkpt>
      <trkpt lat="43.02295" lon="-0.10332">
        <ele>514.92</ele>
        <time>2013-12-21T10:54:18Z</time>
      </trkpt>
      <trkpt lat="43.02295" lon="-0.10343">
        <ele>515.88</ele>
        <time>2013-12-21T10:54:22Z</time>
      </trkpt>
      <trkpt lat="43.02291" lon="-0.10362">
        <ele>515.4</ele>
        <time>2013-12-21T10:54:35Z</time>
      </trkpt>
      <trkpt lat="43.02291" lon="-0.10368">
        <ele>514.92</ele>
        <time>2013-12-21T10:54:57Z</time>
      </trkpt>
      <trkpt lat="43.02289" lon="-0.10369">
        <ele>515.4</ele>
        <time>2013-12-21T10:55:14Z</time>
      </trkpt>
      <trkpt lat="43.0229" lon="-0.10369">
        <ele>515.4</ele>
        <time>2013-12-21T10:55:34Z</time>
      </trkpt>
      <trkpt lat="43.02291" lon="-0.10369">
        <ele>515.4</ele>
        <time>2013-12-21T10:55:57Z</time>
      </trkpt>
      <trkpt lat="43.0229" lon="-0.1037">
        <ele>514.92</ele>
        <time>2013-12-21T10:56:20Z</time>
      </trkpt>
      <trkpt lat="43.0229" lon="-0.10373">
        <ele>514.92</ele>
        <time>2013-12-21T10:56:47Z</time>
      </trkpt>
      <trkpt lat="43.0229" lon="-0.10372">
        <ele>514.92</ele>
        <time>2013-12-21T10:57:12Z</time>
      </trkpt>
      <trkpt lat="43.0229" lon="-0.10371">
        <ele>514.92</ele>
        <time>2013-12-21T10:57:38Z</time>
      </trkpt>
      <trkpt lat="43.02291" lon="-0.10374">
        <ele>514.92</ele>
        <time>2013-12-21T10:57:53Z</time>
      </trkpt>
      <trkpt lat="43.02285" lon="-0.10383">
        <ele>513.96</ele>
        <time>2013-12-21T10:57:58Z</time>
      </trkpt>
      <trkpt lat="43.02275" lon="-0.10402">
        <ele>512.52</ele>
        <time>2013-12-21T10:58:03Z</time>
      </trkpt>
      <trkpt lat="43.02271" lon="-0.10408">
        <ele>511.08</ele>
        <time>2013-12-21T10:58:04Z</time>
      </trkpt>
      <trkpt lat="43.02264" lon="-0.10423">
        <ele>509.16</ele>
        <time>2013-12-21T10:58:06Z</time>
      </trkpt>
      <trkpt lat="43.02252" lon="-0.10449">
        <ele>507.23</ele>
        <time>2013-12-21T10:58:09Z</time>
      </trkpt>
      <trkpt lat="43.02249" lon="-0.10458">
        <ele>507.71</ele>
        <time>2013-12-21T10:58:10Z</time>
      </trkpt>
      <trkpt lat="43.02246" lon="-0.10467">
        <ele>508.19</ele>
        <time>2013-12-21T10:58:11Z</time>
      </trkpt>
      <trkpt lat="43.02244" lon="-0.10475">
        <ele>508.19</ele>
        <time>2013-12-21T10:58:12Z</time>
      </trkpt>
      <trkpt lat="43.02231" lon="-0.10544">
        <ele>508.19</ele>
        <time>2013-12-21T10:58:22Z</time>
      </trkpt>
      <trkpt lat="43.02226" lon="-0.10618">
        <ele>508.67</ele>
        <time>2013-12-21T10:58:35Z</time>
      </trkpt>
      <trkpt lat="43.02224" lon="-0.10623">
        <ele>508.67</ele>
        <time>2013-12-21T10:58:37Z</time>
      </trkpt>
      <trkpt lat="43.02222" lon="-0.10624">
        <ele>508.67</ele>
        <time>2013-12-21T10:58:38Z</time>
      </trkpt>
      <trkpt lat="43.0222" lon="-0.10624">
        <ele>508.67</ele>
        <time>2013-12-21T10:58:39Z</time>
      </trkpt>
      <trkpt lat="43.02217" lon="-0.10622">
        <ele>508.67</ele>
        <time>2013-12-21T10:58:40Z</time>
      </trkpt>
      <trkpt lat="43.02176" lon="-0.10581">
        <ele>507.71</ele>
        <time>2013-12-21T10:58:56Z</time>
      </trkpt>
      <trkpt lat="43.02145" lon="-0.10545">
        <ele>509.16</ele>
        <time>2013-12-21T10:59:09Z</time>
      </trkpt>
      <trkpt lat="43.02107" lon="-0.10501">
        <ele>511.08</ele>
        <time>2013-12-21T10:59:24Z</time>
      </trkpt>
      <trkpt lat="43.02076" lon="-0.10464">
        <ele>512.52</ele>
        <time>2013-12-21T10:59:37Z</time>
      </trkpt>
      <trkpt lat="43.02056" lon="-0.10443">
        <ele>513.96</ele>
        <time>2013-12-21T10:59:47Z</time>
      </trkpt>
      <trkpt lat="43.02035" lon="-0.10422">
        <ele>515.88</ele>
        <time>2013-12-21T10:59:58Z</time>
      </trkpt>
      <trkpt lat="43.0202" lon="-0.10404">
        <ele>519.25</ele>
        <time>2013-12-21T11:00:08Z</time>
      </trkpt>
      <trkpt lat="43.02019" lon="-0.10402">
        <ele>519.25</ele>
        <time>2013-12-21T11:00:09Z</time>
      </trkpt>
      <trkpt lat="43.02014" lon="-0.10392">
        <ele>521.65</ele>
        <time>2013-12-21T11:00:17Z</time>
      </trkpt>
      <trkpt lat="43.01995" lon="-0.10369">
        <ele>524.54</ele>
        <time>2013-12-21T11:00:29Z</time>
      </trkpt>
      <trkpt lat="43.01982" lon="-0.10345">
        <ele>524.54</ele>
        <time>2013-12-21T11:00:40Z</time>
      </trkpt>
      <trkpt lat="43.01976" lon="-0.10339">
        <ele>525.02</ele>
        <time>2013-12-21T11:00:43Z</time>
      </trkpt>
      <trkpt lat="43.01968" lon="-0.10328">
        <ele>525.5</ele>
        <time>2013-12-21T11:00:50Z</time>
      </trkpt>
      <trkpt lat="43.01963" lon="-0.10324">
        <ele>526.94</ele>
        <time>2013-12-21T11:00:54Z</time>
      </trkpt>
      <trkpt lat="43.01943" lon="-0.10287">
        <ele>525.98</ele>
        <time>2013-12-21T11:01:05Z</time>
      </trkpt>
      <trkpt lat="43.01936" lon="-0.10275">
        <ele>525.5</ele>
        <time>2013-12-21T11:01:10Z</time>
      </trkpt>
      <trkpt lat="43.01927" lon="-0.10263">
        <ele>525.98</ele>
        <time>2013-12-21T11:01:17Z</time>
      </trkpt>
      <trkpt lat="43.01901" lon="-0.10239">
        <ele>525.98</ele>
        <time>2013-12-21T11:01:31Z</time>
      </trkpt>
      <trkpt lat="43.01897" lon="-0.10233">
        <ele>526.46</ele>
        <time>2013-12-21T11:01:34Z</time>
      </trkpt>
      <trkpt lat="43.01879" lon="-0.10213">
        <ele>527.42</ele>
        <time>2013-12-21T11:01:45Z</time>
      </trkpt>
      <trkpt lat="43.01872" lon="-0.10206">
        <ele>528.38</ele>
        <time>2013-12-21T11:01:49Z</time>
      </trkpt>
      <trkpt lat="43.01867" lon="-0.10197">
        <ele>529.82</ele>
        <time>2013-12-21T11:01:53Z</time>
      </trkpt>
      <trkpt lat="43.01857" lon="-0.10169">
        <ele>528.38</ele>
        <time>2013-12-21T11:02:05Z</time>
      </trkpt>
      <trkpt lat="43.0185" lon="-0.10139">
        <ele>527.42</ele>
        <time>2013-12-21T11:02:15Z</time>
      </trkpt>
      <trkpt lat="43.01847" lon="-0.10133">
        <ele>527.42</ele>
        <time>2013-12-21T11:02:17Z</time>
      </trkpt>
      <trkpt lat="43.01843" lon="-0.1012">
        <ele>526.94</ele>
        <time>2013-12-21T11:02:21Z</time>
      </trkpt>
      <trkpt lat="43.01838" lon="-0.10101">
        <ele>526.46</ele>
        <time>2013-12-21T11:02:31Z</time>
      </trkpt>
      <trkpt lat="43.01838" lon="-0.10098">
        <ele>526.46</ele>
        <time>2013-12-21T11:02:47Z</time>
      </trkpt>
      <trkpt lat="43.01837" lon="-0.10097">
        <ele>526.46</ele>
        <time>2013-12-21T11:03:10Z</time>
      </trkpt>
      <trkpt lat="43.01836" lon="-0.10098">
        <ele>526.46</ele>
        <time>2013-12-21T11:03:27Z</time>
      </trkpt>
      <trkpt lat="43.01827" lon="-0.10092">
        <ele>525.98</ele>
        <time>2013-12-21T11:03:41Z</time>
      </trkpt>
      <trkpt lat="43.01793" lon="-0.10079">
        <ele>525.98</ele>
        <time>2013-12-21T11:03:51Z</time>
      </trkpt>
      <trkpt lat="43.01766" lon="-0.10072">
        <ele>523.58</ele>
        <time>2013-12-21T11:03:56Z</time>
      </trkpt>
      <trkpt lat="43.01751" lon="-0.10069">
        <ele>522.61</ele>
        <time>2013-12-21T11:03:58Z</time>
      </trkpt>
      <trkpt lat="43.01738" lon="-0.10071">
        <ele>521.17</ele>
        <time>2013-12-21T11:04:00Z</time>
      </trkpt>
      <trkpt lat="43.01725" lon="-0.10074">
        <ele>522.13</ele>
        <time>2013-12-21T11:04:02Z</time>
      </trkpt>
      <trkpt lat="43.0171" lon="-0.10068">
        <ele>523.58</ele>
        <time>2013-12-21T11:04:06Z</time>
      </trkpt>
      <trkpt lat="43.01702" lon="-0.10057">
        <ele>524.54</ele>
        <time>2013-12-21T11:04:10Z</time>
      </trkpt>
      <trkpt lat="43.017" lon="-0.10054">
        <ele>525.5</ele>
        <time>2013-12-21T11:04:12Z</time>
      </trkpt>
      <trkpt lat="43.01698" lon="-0.10048">
        <ele>527.42</ele>
        <time>2013-12-21T11:04:15Z</time>
      </trkpt>
      <trkpt lat="43.01692" lon="-0.10021">
        <ele>528.86</ele>
        <time>2013-12-21T11:04:25Z</time>
      </trkpt>
      <trkpt lat="43.01671" lon="-0.09989">
        <ele>526.94</ele>
        <time>2013-12-21T11:04:35Z</time>
      </trkpt>
      <trkpt lat="43.01667" lon="-0.09986">
        <ele>526.94</ele>
        <time>2013-12-21T11:04:36Z</time>
      </trkpt>
      <trkpt lat="43.01652" lon="-0.09984">
        <ele>524.54</ele>
        <time>2013-12-21T11:04:40Z</time>
      </trkpt>
      <trkpt lat="43.01644" lon="-0.09985">
        <ele>523.58</ele>
        <time>2013-12-21T11:04:42Z</time>
      </trkpt>
      <trkpt lat="43.01639" lon="-0.09985">
        <ele>523.58</ele>
        <time>2013-12-21T11:04:43Z</time>
      </trkpt>
      <trkpt lat="43.01599" lon="-0.09999">
        <ele>520.69</ele>
        <time>2013-12-21T11:04:51Z</time>
      </trkpt>
      <trkpt lat="43.01578" lon="-0.10005">
        <ele>518.77</ele>
        <time>2013-12-21T11:04:55Z</time>
      </trkpt>
      <trkpt lat="43.01568" lon="-0.1001">
        <ele>516.37</ele>
        <time>2013-12-21T11:04:57Z</time>
      </trkpt>
      <trkpt lat="43.01545" lon="-0.10015">
        <ele>514.44</ele>
        <time>2013-12-21T11:05:01Z</time>
      </trkpt>
      <trkpt lat="43.01536" lon="-0.1002">
        <ele>513.48</ele>
        <time>2013-12-21T11:05:03Z</time>
      </trkpt>
      <trkpt lat="43.01524" lon="-0.10027">
        <ele>512.04</ele>
        <time>2013-12-21T11:05:06Z</time>
      </trkpt>
      <trkpt lat="43.01504" lon="-0.1004">
        <ele>509.64</ele>
        <time>2013-12-21T11:05:10Z</time>
      </trkpt>
      <trkpt lat="43.01486" lon="-0.10056">
        <ele>507.71</ele>
        <time>2013-12-21T11:05:13Z</time>
      </trkpt>
      <trkpt lat="43.01468" lon="-0.10072">
        <ele>505.79</ele>
        <time>2013-12-21T11:05:16Z</time>
      </trkpt>
      <trkpt lat="43.01453" lon="-0.10093">
        <ele>503.39</ele>
        <time>2013-12-21T11:05:19Z</time>
      </trkpt>
      <trkpt lat="43.01429" lon="-0.10119">
        <ele>502.43</ele>
        <time>2013-12-21T11:05:23Z</time>
      </trkpt>
      <trkpt lat="43.01384" lon="-0.10137">
        <ele>504.83</ele>
        <time>2013-12-21T11:05:32Z</time>
      </trkpt>
      <trkpt lat="43.01373" lon="-0.10134">
        <ele>506.27</ele>
        <time>2013-12-21T11:05:37Z</time>
      </trkpt>
      <trkpt lat="43.01353" lon="-0.10128">
        <ele>503.39</ele>
        <time>2013-12-21T11:05:42Z</time>
      </trkpt>
      <trkpt lat="43.01316" lon="-0.10119">
        <ele>502.43</ele>
        <time>2013-12-21T11:05:48Z</time>
      </trkpt>
      <trkpt lat="43.01297" lon="-0.10115">
        <ele>501.46</ele>
        <time>2013-12-21T11:05:52Z</time>
      </trkpt>
      <trkpt lat="43.01274" lon="-0.10116">
        <ele>496.18</ele>
        <time>2013-12-21T11:05:56Z</time>
      </trkpt>
      <trkpt lat="43.01267" lon="-0.10117">
        <ele>496.18</ele>
        <time>2013-12-21T11:05:57Z</time>
      </trkpt>
      <trkpt lat="43.0126" lon="-0.10118">
        <ele>496.18</ele>
        <time>2013-12-21T11:05:58Z</time>
      </trkpt>
      <trkpt lat="43.01237" lon="-0.10133">
        <ele>491.85</ele>
        <time>2013-12-21T11:06:03Z</time>
      </trkpt>
      <trkpt lat="43.01231" lon="-0.10135">
        <ele>491.37</ele>
        <time>2013-12-21T11:06:04Z</time>
      </trkpt>
      <trkpt lat="43.01217" lon="-0.10137">
        <ele>488.97</ele>
        <time>2013-12-21T11:06:06Z</time>
      </trkpt>
      <trkpt lat="43.01195" lon="-0.10144">
        <ele>483.68</ele>
        <time>2013-12-21T11:06:09Z</time>
      </trkpt>
      <trkpt lat="43.01173" lon="-0.10153">
        <ele>481.76</ele>
        <time>2013-12-21T11:06:13Z</time>
      </trkpt>
      <trkpt lat="43.01164" lon="-0.10152">
        <ele>480.8</ele>
        <time>2013-12-21T11:06:17Z</time>
      </trkpt>
      <trkpt lat="43.01157" lon="-0.10151">
        <ele>478.39</ele>
        <time>2013-12-21T11:06:21Z</time>
      </trkpt>
      <trkpt lat="43.01155" lon="-0.10151">
        <ele>478.39</ele>
        <time>2013-12-21T11:06:22Z</time>
      </trkpt>
      <trkpt lat="43.01148" lon="-0.1015">
        <ele>477.43</ele>
        <time>2013-12-21T11:06:37Z</time>
      </trkpt>
      <trkpt lat="43.01148" lon="-0.1015">
        <ele>477.43</ele>
        <time>2013-12-21T11:06:40Z</time>
      </trkpt>
      <trkpt lat="43.01137" lon="-0.10149">
        <ele>475.99</ele>
        <time>2013-12-21T11:06:44Z</time>
      </trkpt>
      <trkpt lat="43.01112" lon="-0.10142">
        <ele>473.11</ele>
        <time>2013-12-21T11:06:49Z</time>
      </trkpt>
      <trkpt lat="43.01101" lon="-0.10134">
        <ele>472.63</ele>
        <time>2013-12-21T11:06:51Z</time>
      </trkpt>
      <trkpt lat="43.0109" lon="-0.10129">
        <ele>473.11</ele>
        <time>2013-12-21T11:06:53Z</time>
      </trkpt>
      <trkpt lat="43.0108" lon="-0.10127">
        <ele>472.63</ele>
        <time>2013-12-21T11:06:55Z</time>
      </trkpt>
      <trkpt lat="43.01045" lon="-0.10138">
        <ele>474.07</ele>
        <time>2013-12-21T11:07:04Z</time>
      </trkpt>
      <trkpt lat="43.01028" lon="-0.10136">
        <ele>474.07</ele>
        <time>2013-12-21T11:07:08Z</time>
      </trkpt>
      <trkpt lat="43.01006" lon="-0.10121">
        <ele>474.07</ele>
        <time>2013-12-21T11:07:14Z</time>
      </trkpt>
      <trkpt lat="43.00971" lon="-0.10123">
        <ele>474.55</ele>
        <time>2013-12-21T11:07:25Z</time>
      </trkpt>
      <trkpt lat="43.00945" lon="-0.10121">
        <ele>473.11</ele>
        <time>2013-12-21T11:07:33Z</time>
      </trkpt>
      <trkpt lat="43.00933" lon="-0.10106">
        <ele>469.26</ele>
        <time>2013-12-21T11:07:37Z</time>
      </trkpt>
      <trkpt lat="43.00932" lon="-0.10103">
        <ele>468.78</ele>
        <time>2013-12-21T11:07:38Z</time>
      </trkpt>
      <trkpt lat="43.00928" lon="-0.10094">
        <ele>467.34</ele>
        <time>2013-12-21T11:07:41Z</time>
      </trkpt>
      <trkpt lat="43.00932" lon="-0.10062">
        <ele>463.01</ele>
        <time>2013-12-21T11:07:46Z</time>
      </trkpt>
      <trkpt lat="43.00923" lon="-0.10031">
        <ele>459.65</ele>
        <time>2013-12-21T11:07:51Z</time>
      </trkpt>
      <trkpt lat="43.00919" lon="-0.10033">
        <ele>458.69</ele>
        <time>2013-12-21T11:07:52Z</time>
      </trkpt>
      <trkpt lat="43.00898" lon="-0.10063">
        <ele>459.17</ele>
        <time>2013-12-21T11:08:01Z</time>
      </trkpt>
      <trkpt lat="43.00892" lon="-0.10067">
        <ele>459.17</ele>
        <time>2013-12-21T11:08:03Z</time>
      </trkpt>
      <trkpt lat="43.00857" lon="-0.10029">
        <ele>459.17</ele>
        <time>2013-12-21T11:08:16Z</time>
      </trkpt>
      <trkpt lat="43.0084" lon="-0.09989">
        <ele>459.17</ele>
        <time>2013-12-21T11:08:27Z</time>
      </trkpt>
      <trkpt lat="43.00835" lon="-0.09969">
        <ele>457.24</ele>
        <time>2013-12-21T11:08:32Z</time>
      </trkpt>
      <trkpt lat="43.00823" lon="-0.09958">
        <ele>456.76</ele>
        <time>2013-12-21T11:08:40Z</time>
      </trkpt>
      <trkpt lat="43.00803" lon="-0.09962">
        <ele>456.28</ele>
        <time>2013-12-21T11:08:52Z</time>
      </trkpt>
      <trkpt lat="43.00802" lon="-0.09962">
        <ele>456.76</ele>
        <time>2013-12-21T11:08:59Z</time>
      </trkpt>
      <trkpt lat="43.00799" lon="-0.09957">
        <ele>456.28</ele>
        <time>2013-12-21T11:09:02Z</time>
      </trkpt>
      <trkpt lat="43.00794" lon="-0.09941">
        <ele>455.32</ele>
        <time>2013-12-21T11:09:08Z</time>
      </trkpt>
      <trkpt lat="43.00799" lon="-0.09931">
        <ele>454.36</ele>
        <time>2013-12-21T11:09:23Z</time>
      </trkpt>
      <trkpt lat="43.00815" lon="-0.09899">
        <ele>453.4</ele>
        <time>2013-12-21T11:09:33Z</time>
      </trkpt>
      <trkpt lat="43.00817" lon="-0.09896">
        <ele>453.88</ele>
        <time>2013-12-21T11:09:34Z</time>
      </trkpt>
      <trkpt lat="43.0086" lon="-0.09875">
        <ele>451</ele>
        <time>2013-12-21T11:09:46Z</time>
      </trkpt>
      <trkpt lat="43.00873" lon="-0.09871">
        <ele>450.03</ele>
        <time>2013-12-21T11:09:52Z</time>
      </trkpt>
      <trkpt lat="43.00869" lon="-0.0987">
        <ele>446.67</ele>
        <time>2013-12-21T11:09:59Z</time>
      </trkpt>
      <trkpt lat="43.00868" lon="-0.09871">
        <ele>446.67</ele>
        <time>2013-12-21T11:10:00Z</time>
      </trkpt>
      <trkpt lat="43.00867" lon="-0.09871">
        <ele>445.71</ele>
        <time>2013-12-21T11:10:04Z</time>
      </trkpt>
      <trkpt lat="43.00871" lon="-0.09864">
        <ele>444.27</ele>
        <time>2013-12-21T11:10:07Z</time>
      </trkpt>
      <trkpt lat="43.00865" lon="-0.09859">
        <ele>442.82</ele>
        <time>2013-12-21T11:10:13Z</time>
      </trkpt>
      <trkpt lat="43.00869" lon="-0.09857">
        <ele>441.86</ele>
        <time>2013-12-21T11:10:14Z</time>
      </trkpt>
      <trkpt lat="43.00884" lon="-0.09856">
        <ele>439.46</ele>
        <time>2013-12-21T11:10:19Z</time>
      </trkpt>
      <trkpt lat="43.00869" lon="-0.09839">
        <ele>437.06</ele>
        <time>2013-12-21T11:10:25Z</time>
      </trkpt>
      <trkpt lat="43.00871" lon="-0.09837">
        <ele>437.06</ele>
        <time>2013-12-21T11:10:33Z</time>
      </trkpt>
      <trkpt lat="43.00874" lon="-0.09835">
        <ele>437.06</ele>
        <time>2013-12-21T11:10:51Z</time>
      </trkpt>
      <trkpt lat="43.00874" lon="-0.09836">
        <ele>437.06</ele>
        <time>2013-12-21T11:11:16Z</time>
      </trkpt>
      <trkpt lat="43.00875" lon="-0.09838">
        <ele>437.06</ele>
        <time>2013-12-21T11:11:43Z</time>
      </trkpt>
      <trkpt lat="43.00875" lon="-0.09838">
        <ele>437.06</ele>
        <time>2013-12-21T11:12:05Z</time>
      </trkpt>
      <trkpt lat="43.00874" lon="-0.09837">
        <ele>437.54</ele>
        <time>2013-12-21T11:12:22Z</time>
      </trkpt>
      <trkpt lat="43.00874" lon="-0.09835">
        <ele>437.06</ele>
        <time>2013-12-21T11:12:38Z</time>
      </trkpt>
      <trkpt lat="43.00871" lon="-0.09828">
        <ele>437.54</ele>
        <time>2013-12-21T11:12:42Z</time>
      </trkpt>
      <trkpt lat="43.00832" lon="-0.09809">
        <ele>437.54</ele>
        <time>2013-12-21T11:12:56Z</time>
      </trkpt>
      <trkpt lat="43.00828" lon="-0.09805">
        <ele>437.06</ele>
        <time>2013-12-21T11:12:58Z</time>
      </trkpt>
      <trkpt lat="43.00812" lon="-0.09801">
        <ele>437.54</ele>
        <time>2013-12-21T11:13:03Z</time>
      </trkpt>
      <trkpt lat="43.00772" lon="-0.09785">
        <ele>438.02</ele>
        <time>2013-12-21T11:13:15Z</time>
      </trkpt>
      <trkpt lat="43.00738" lon="-0.0977">
        <ele>438.98</ele>
        <time>2013-12-21T11:13:27Z</time>
      </trkpt>
      <trkpt lat="43.00703" lon="-0.09759">
        <ele>439.94</ele>
        <time>2013-12-21T11:13:38Z</time>
      </trkpt>
      <trkpt lat="43.00701" lon="-0.09759">
        <ele>440.42</ele>
        <time>2013-12-21T11:13:39Z</time>
      </trkpt>
      <trkpt lat="43.00699" lon="-0.09745">
        <ele>439.94</ele>
        <time>2013-12-21T11:13:43Z</time>
      </trkpt>
      <trkpt lat="43.007" lon="-0.09689">
        <ele>438.5</ele>
        <time>2013-12-21T11:13:54Z</time>
      </trkpt>
      <trkpt lat="43.00703" lon="-0.09663">
        <ele>438.5</ele>
        <time>2013-12-21T11:14:03Z</time>
      </trkpt>
      <trkpt lat="43.00705" lon="-0.09635">
        <ele>437.54</ele>
        <time>2013-12-21T11:14:12Z</time>
      </trkpt>
      <trkpt lat="43.00708" lon="-0.09571">
        <ele>436.1</ele>
        <time>2013-12-21T11:14:24Z</time>
      </trkpt>
      <trkpt lat="43.00717" lon="-0.09538">
        <ele>434.17</ele>
        <time>2013-12-21T11:14:30Z</time>
      </trkpt>
      <trkpt lat="43.00724" lon="-0.09522">
        <ele>433.69</ele>
        <time>2013-12-21T11:14:33Z</time>
      </trkpt>
      <trkpt lat="43.00734" lon="-0.09505">
        <ele>434.17</ele>
        <time>2013-12-21T11:14:41Z</time>
      </trkpt>
      <trkpt lat="43.00738" lon="-0.095">
        <ele>434.65</ele>
        <time>2013-12-21T11:14:55Z</time>
      </trkpt>
      <trkpt lat="43.0074" lon="-0.095">
        <ele>435.13</ele>
        <time>2013-12-21T11:15:12Z</time>
      </trkpt>
      <trkpt lat="43.0074" lon="-0.095">
        <ele>434.65</ele>
        <time>2013-12-21T11:15:36Z</time>
      </trkpt>
      <trkpt lat="43.00739" lon="-0.095">
        <ele>434.65</ele>
        <time>2013-12-21T11:15:58Z</time>
      </trkpt>
      <trkpt lat="43.00739" lon="-0.095">
        <ele>434.65</ele>
        <time>2013-12-21T11:16:28Z</time>
      </trkpt>
      <trkpt lat="43.00739" lon="-0.095">
        <ele>434.65</ele>
        <time>2013-12-21T11:16:57Z</time>
      </trkpt>
      <trkpt lat="43.00738" lon="-0.09501">
        <ele>434.65</ele>
        <time>2013-12-21T11:17:30Z</time>
      </trkpt>
      <trkpt lat="43.00738" lon="-0.09502">
        <ele>435.13</ele>
        <time>2013-12-21T11:18:04Z</time>
      </trkpt>
      <trkpt lat="43.00738" lon="-0.09501">
        <ele>434.65</ele>
        <time>2013-12-21T11:18:42Z</time>
      </trkpt>
      <trkpt lat="43.0074" lon="-0.095">
        <ele>434.65</ele>
        <time>2013-12-21T11:19:17Z</time>
      </trkpt>
      <trkpt lat="43.00739" lon="-0.09499">
        <ele>434.65</ele>
        <time>2013-12-21T11:19:53Z</time>
      </trkpt>
      <trkpt lat="43.00739" lon="-0.095">
        <ele>435.13</ele>
        <time>2013-12-21T11:20:28Z</time>
      </trkpt>
      <trkpt lat="43.00739" lon="-0.09501">
        <ele>435.13</ele>
        <time>2013-12-21T11:21:01Z</time>
      </trkpt>
      <trkpt lat="43.0074" lon="-0.095">
        <ele>435.13</ele>
        <time>2013-12-21T11:21:34Z</time>
      </trkpt>
      <trkpt lat="43.00739" lon="-0.09499">
        <ele>435.13</ele>
        <time>2013-12-21T11:22:06Z</time>
      </trkpt>
      <trkpt lat="43.00739" lon="-0.09499">
        <ele>434.65</ele>
        <time>2013-12-21T11:22:38Z</time>
      </trkpt>
      <trkpt lat="43.00739" lon="-0.09499">
        <ele>434.65</ele>
        <time>2013-12-21T11:23:06Z</time>
      </trkpt>
      <trkpt lat="43.00739" lon="-0.095">
        <ele>434.65</ele>
        <time>2013-12-21T11:23:36Z</time>
      </trkpt>
      <trkpt lat="43.00738" lon="-0.09497">
        <ele>435.13</ele>
        <time>2013-12-21T11:23:54Z</time>
      </trkpt>
      <trkpt lat="43.00738" lon="-0.09497">
        <ele>435.13</ele>
        <time>2013-12-21T11:24:06Z</time>
      </trkpt>
      <trkpt lat="43.00737" lon="-0.09495">
        <ele>435.13</ele>
        <time>2013-12-21T11:24:26Z</time>
      </trkpt>
      <trkpt lat="43.00737" lon="-0.09494">
        <ele>434.65</ele>
        <time>2013-12-21T11:24:59Z</time>
      </trkpt>
      <trkpt lat="43.00736" lon="-0.09494">
        <ele>434.65</ele>
        <time>2013-12-21T11:25:24Z</time>
      </trkpt>
    </trkseg>
  </trk>
</gpx>